Zarling — WDD7883 — position and weather

sailwx.info

Track history (hours):
 
Tides and Currents Weather Stations Pressure Air Temp Water Temp Dewpoint Dewpoint Depression Visibility Wind Speed Wind Dir Waves Ship Positions

Zarling

Owner: Clean Rivers Co-op, Portland, OR. More information available from US FCC via Universal Licensing System.

Last reported at 2016-May-05 07:31 UTC. Time now 2016-May-05 08:32 UTC.
Position N 46°11' W 123°51'.

Length 12 m.

Type: Pollution control. MMSI: 3699126.

Date/timePositionNaut miles runAvg speedWind from/ knotsBaromVisibWave heightAir tempDewpointWater temp
2016-May-05 07:31N 46°11' W 123°51'33459.8
2016-May-05 07:27N 46°10' W 123°03'14425.8
2016-May-05 07:25N 46°12' W 123°23'14113.9
2016-May-05 07:18N 46°10' W 123°03'0 0.0
2016-May-05 06:33N 46°10' W 123°03'331132.2
2016-May-05 06:31N 46°11' W 123°51'331263.3
2016-May-05 06:30N 46°10' W 123°03'3334.3
2016-May-05 05:31N 46°11' W 123°51'336316.5
2016-May-05 05:31N 46°10' W 123°03'0 0.1
2016-May-05 05:27N 46°10' W 123°03'14497.5
2016-May-05 05:25N 46°12' W 123°23'1416.0
2016-May-05 04:33N 46°10' W 123°03'331363.8
2016-May-05 04:31N 46°11' W 123°51'204690.9
2016-May-05 04:31N 46°12' W 123°23'1469.9
2016-May-05 04:19N 46°10' W 123°03'3342.0
2016-May-05 03:31N 46°11' W 123°51'203909.1
2016-May-05 03:31N 46°12' W 123°23'14113.9
2016-May-05 03:24N 46°10' W 123°03'0 0.0
2016-May-05 02:33N 46°10' W 123°03'331481.6
2016-May-05 02:31N 46°11' W 123°51'203518.2
2016-May-05 02:31N 46°12' W 123°23'14276.1
2016-May-05 02:28N 46°10' W 123°03'3335.3
2016-May-05 01:31N 46°11' W 123°51'335714.9
2016-May-05 01:31N 46°10' W 123°03'0 0.0
2016-May-05 01:21N 46°10' W 123°03'3340.5
2016-May-05 00:31N 46°11' W 123°51'337059.6
2016-May-05 00:31N 46°10' W 123°03'0 0.3
2016-May-05 00:30N 46°10' W 123°03'0 0.0
2016-May-04 23:33N 46°10' W 123°03'331379.4
2016-May-04 23:31N 46°11' W 123°51'337059.6
2016-May-04 23:31N 46°10' W 123°03'3333.6
2016-May-04 22:32N 46°11' W 123°51'33588.3
2016-May-04 22:28N 46°10' W 123°03'0 0.0
2016-May-04 22:15N 46°10' W 123°03'0 0.0
2016-May-04 21:33N 46°10' W 123°03'331395.5
2016-May-04 21:31N 46°11' W 123°51'336316.5
2016-May-04 21:31N 46°10' W 123°03'3333.6
2016-May-04 20:32N 46°11' W 123°51'331224.6
2016-May-04 20:30N 46°10' W 123°03'0 0.1
2016-May-04 20:25N 46°10' W 123°03'14140.7
2016-May-04 20:19N 46°12' W 123°23'2024.6
2016-May-04 19:31N 46°11' W 123°51'203198.4
2016-May-04 19:31N 46°12' W 123°23'1450249.9
2016-May-04 19:31N 46°10' W 123°03'0 0.1
2016-May-04 19:18N 46°10' W 123°03'0 0.0
2016-May-04 18:33N 46°10' W 123°03'331445.9
2016-May-04 18:31N 46°11' W 123°51'203198.4
2016-May-04 18:31N 46°12' W 123°23'1469.7
2016-May-04 18:19N 46°10' W 123°03'0 0.0
2016-May-04 17:33N 46°10' W 123°03'331395.5
2016-May-04 17:31N 46°11' W 123°51'33588.3
2016-May-04 17:28N 46°10' W 123°03'1456.1
2016-May-04 17:13N 46°12' W 123°23'2028.1
2016-May-04 16:31N 46°11' W 123°51'331290.4
2016-May-04 16:30N 46°10' W 123°03'14176.3
2016-May-04 16:25N 46°12' W 123°23'14276.1
2016-May-04 16:22N 46°10' W 123°03'3339.5
2016-May-04 15:31N 46°11' W 123°51'203703.4
2016-May-04 15:31N 46°12' W 123°23'14139.2
2016-May-04 15:25N 46°10' W 123°03'0 0.1
2016-May-04 15:21N 46°10' W 123°03'0 0.0
2016-May-04 14:33N 46°10' W 123°03'331379.4
2016-May-04 14:31N 46°11' W 123°51'203198.4
2016-May-04 14:31N 46°12' W 123°23'14282.3
2016-May-04 14:28N 46°10' W 123°03'3335.3
2016-May-04 13:32N 46°11' W 123°51'331250.1
2016-May-04 13:30N 46°10' W 123°03'0 0.4
2016-May-04 13:28N 46°10' W 123°03'1455.8
2016-May-04 13:13N 46°12' W 123°23'1420.9
2016-May-04 12:33N 46°10' W 123°03'331363.8
2016-May-04 12:32N 46°11' W 123°51'203059.3
2016-May-04 12:31N 46°12' W 123°23'1416750.0
2016-May-04 12:31N 46°10' W 123°03'3333.6
2016-May-04 11:32N 46°11' W 123°51'202814.6
2016-May-04 11:31N 46°12' W 123°23'14688.3
2016-May-04 11:30N 46°10' W 123°03'0 0.0
2016-May-04 11:22N 46°10' W 123°03'3339.6
2016-May-04 10:32N 46°11' W 123°51'331200.1
2016-May-04 10:30N 46°10' W 123°03'0 0.2
2016-May-04 10:28N 46°10' W 123°03'14287.1
2016-May-04 10:25N 46°12' W 123°23'1416.0
2016-May-04 09:33N 46°10' W 123°03'331428.7
2016-May-04 09:32N 46°11' W 123°51'334138.4
2016-May-04 09:31N 46°10' W 123°03'0 0.0
2016-May-04 08:33N 46°10' W 123°03'331379.4
2016-May-04 08:32N 46°11' W 123°51'334286.2
2016-May-04 08:31N 46°10' W 123°03'1469.8
2016-May-04 08:19N 46°12' W 123°23'1418.2
2016-May-04 07:33N 46°10' W 123°03'331445.9
2016-May-04 07:32N 46°11' W 123°51'33566.1
2016-May-04 07:28N 46°10' W 123°03'0 0.0
2016-May-04 06:33N 46°10' W 123°03'331395.5
2016-May-04 06:32N 46°11' W 123°51'0 0.0
2016-May-04 05:32N 46°11' W 123°51'331290.4
2016-May-04 05:30N 46°10' W 123°03'0 0.0
2016-May-04 05:22N 46°10' W 123°03'3339.7
2016-May-04 04:32N 46°11' W 123°51'202513.0
2016-May-04 04:31N 46°12' W 123°23'14728.2
2016-May-04 04:30N 46°10' W 123°03'0 0.2
2016-May-04 04:28N 46°10' W 123°03'3335.4
2016-May-04 03:32N 46°11' W 123°51'202513.0
2016-May-04 03:31N 46°12' W 123°23'1410050.0
2016-May-04 03:31N 46°10' W 123°03'0 0.2
2016-May-04 03:27N 46°10' W 123°03'3336.1
2016-May-04 02:32N 46°11' W 123°51'202426.4
2016-May-04 02:31N 46°12' W 123°23'14773.0
2016-May-04 02:30N 46°10' W 123°03'0 0.0
2016-May-04 02:22N 46°10' W 123°03'3339.6
2016-May-04 01:32N 46°11' W 123°51'334000.4
2016-May-04 01:31N 46°10' W 123°03'0 0.3
2016-May-04 01:30N 46°10' W 123°03'1436.6
2016-May-04 01:07N 46°12' W 123°23'2033.0
2016-May-04 00:32N 46°11' W 123°51'33563.4
2016-May-04 00:28N 46°10' W 123°03'0 0.2
2016-May-04 00:24N 46°10' W 123°03'3338.2
2016-May-03 23:32N 46°11' W 123°51'202069.5
2016-May-03 23:31N 46°12' W 123°23'1410049.3
2016-May-03 23:31N 46°10' W 123°03'0 0.4
2016-May-03 23:30N 46°10' W 123°03'3334.2
2016-May-03 22:32N 46°11' W 123°51'202132.2
2016-May-03 22:31N 46°12' W 123°23'14810.4
2016-May-03 22:30N 46°10' W 123°03'0 0.2
2016-May-03 22:28N 46°10' W 123°03'3335.4
2016-May-03 21:32N 46°11' W 123°51'202345.5
2016-May-03 21:31N 46°12' W 123°23'14773.0
2016-May-03 21:30N 46°10' W 123°03'0 0.1
2016-May-03 21:19N 46°10' W 123°03'3342.3
2016-May-03 20:32N 46°11' W 123°51'33301.5
2016-May-03 20:25N 46°10' W 123°03'0 0.1
2016-May-03 20:12N 46°10' W 123°03'3349.6
2016-May-03 19:32N 46°11' W 123°51'202132.2
2016-May-03 19:31N 46°12' W 123°23'14837.4
2016-May-03 19:30N 46°10' W 123°03'0 0.0
2016-May-03 19:19N 46°10' W 123°03'0 0.0
2016-May-03 18:33N 46°10' W 123°03'331411.9
2016-May-03 18:32N 46°11' W 123°51'33555.6
2016-May-03 18:28N 46°10' W 123°03'1493.9
2016-May-03 18:19N 46°12' W 123°23'2024.7
2016-May-03 17:32N 46°11' W 123°51'202132.2
2016-May-03 17:31N 46°12' W 123°23'1493.1
2016-May-03 17:22N 46°10' W 123°03'0 0.2
2016-May-03 17:18N 46°10' W 123°03'3343.1
2016-May-03 16:32N 46°11' W 123°51'333158.2
2016-May-03 16:31N 46°10' W 123°03'0 0.4
2016-May-03 16:30N 46°10' W 123°03'14415.2
2016-May-03 16:28N 46°12' W 123°23'1415.2
2016-May-03 15:33N 46°10' W 123°03'331481.6
2016-May-03 15:32N 46°11' W 123°51'333077.2
2016-May-03 15:31N 46°10' W 123°03'1446.5
2016-May-03 15:13N 46°12' W 123°23'1421.0
2016-May-03 14:33N 46°10' W 123°03'331463.5
2016-May-03 14:32N 46°11' W 123°51'201901.7
2016-May-03 14:31N 46°12' W 123°23'14277.6
2016-May-03 14:28N 46°10' W 123°03'3335.5
2016-May-03 13:32N 46°11' W 123°51'201901.7
2016-May-03 13:31N 46°12' W 123°23'1412561.6
2016-May-03 13:31N 46°10' W 123°03'0 0.1
2016-May-03 13:24N 46°10' W 123°03'0 0.0
2016-May-03 12:33N 46°10' W 123°03'331411.9
2016-May-03 12:32N 46°11' W 123°51'202069.6
2016-May-03 12:31N 46°12' W 123°23'14138.4
2016-May-03 12:25N 46°10' W 123°03'0 0.0
2016-May-03 11:33N 46°10' W 123°03'331481.6
2016-May-03 11:32N 46°11' W 123°51'20177.2
2016-May-03 11:25N 46°12' W 123°23'14274.6
2016-May-03 11:22N 46°10' W 123°03'3339.7
2016-May-03 10:32N 46°11' W 123°51'333333.7
2016-May-03 10:31N 46°10' W 123°03'0 0.1
2016-May-03 10:27N 46°10' W 123°03'3336.1
2016-May-03 09:32N 46°11' W 123°51'201901.7
2016-May-03 09:31N 46°12' W 123°23'14138.8
2016-May-03 09:25N 46°10' W 123°03'0 0.4
2016-May-03 09:24N 46°10' W 123°03'3338.2
2016-May-03 08:32N 46°11' W 123°51'333077.2
2016-May-03 08:31N 46°10' W 123°03'14282.3
2016-May-03 08:28N 46°12' W 123°23'14897.2
2016-May-03 08:27N 46°10' W 123°03'0 0.0
2016-May-03 07:33N 46°10' W 123°03'14405.2
2016-May-03 07:31N 46°12' W 123°23'20517.4
2016-May-03 07:29N 46°11' W 123°51'33296.3
2016-May-03 07:22N 46°10' W 123°03'3339.8
2016-May-03 06:32N 46°11' W 123°51'332666.9
2016-May-03 06:31N 46°10' W 123°03'0 0.4
2016-May-03 06:30N 46°10' W 123°03'14411.8
2016-May-03 06:28N 46°12' W 123°23'2020.8
2016-May-03 05:32N 46°11' W 123°51'33207.3
2016-May-03 05:22N 46°10' W 123°03'1425123.3
2016-May-03 05:22N 46°12' W 123°23'14985.2
2016-May-03 05:21N 46°10' W 123°03'3340.5
2016-May-03 04:32N 46°11' W 123°51'201716.2
2016-May-03 04:31N 46°12' W 123°23'14138.4
2016-May-03 04:25N 46°10' W 123°03'3337.6
2016-May-03 03:32N 46°11' W 123°51'33156.7
2016-May-03 03:19N 46°10' W 123°03'14140.7
2016-May-03 03:13N 46°12' W 123°23'14930.4
2016-May-03 03:12N 46°10' W 123°03'0 0.0
2016-May-03 02:33N 46°10' W 123°03'331481.6
2016-May-03 02:32N 46°11' W 123°51'33297.8
2016-May-03 02:25N 46°10' W 123°03'14138.0
2016-May-03 02:19N 46°12' W 123°23'2024.8
2016-May-03 01:32N 46°11' W 123°51'332857.4
2016-May-03 01:31N 46°10' W 123°03'0 0.1
2016-May-03 01:24N 46°10' W 123°03'14164.2
2016-May-03 01:19N 46°12' W 123°23'2024.8
2016-May-03 00:32N 46°11' W 123°51'201529.6
2016-May-03 00:31N 46°12' W 123°23'14276.1
2016-May-03 00:28N 46°10' W 123°03'0 0.0
2016-May-03 00:18N 46°10' W 123°03'0 0.0
2016-May-02 23:33N 46°10' W 123°03'332727.6
2016-May-02 23:32N 46°11' W 123°51'33263.2
2016-May-02 23:24N 46°10' W 123°03'3338.1
2016-May-02 22:32N 46°11' W 123°51'33177.8
2016-May-02 22:21N 46°10' W 123°03'0 0.3
2016-May-02 22:18N 46°10' W 123°03'1475.0
2016-May-02 22:07N 46°12' W 123°23'1424.3
2016-May-02 21:33N 46°10' W 123°03'332667.0
2016-May-02 21:32N 46°11' W 123°51'33262.6
2016-May-02 21:24N 46°10' W 123°03'1448.9
2016-May-02 21:07N 46°12' W 123°23'2033.3
2016-May-02 20:32N 46°11' W 123°51'201563.6
2016-May-02 20:31N 46°12' W 123°23'14628.0
2016-May-02 20:30N 46°10' W 123°03'0 0.0
2016-May-02 20:21N 46°10' W 123°03'0 0.0
2016-May-02 19:33N 46°10' W 123°03'332791.0
2016-May-02 19:32N 46°11' W 123°51'33952.5
2016-May-02 19:30N 46°10' W 123°03'14178.2
2016-May-02 19:25N 46°12' W 123°23'1416.0
2016-May-02 18:33N 46°10' W 123°03'332791.0
2016-May-02 18:32N 46°11' W 123°51'201465.9
2016-May-02 18:31N 46°12' W 123°23'141092.2
2016-May-02 18:30N 46°10' W 123°03'0 0.0
2016-May-02 17:33N 46°10' W 123°03'33535.8
2016-May-02 17:29N 46°11' W 123°51'33952.5
2016-May-02 17:27N 46°10' W 123°03'14492.6
2016-May-02 17:25N 46°12' W 123°23'1416.0
2016-May-02 16:33N 46°10' W 123°03'332857.5
2016-May-02 16:32N 46°11' W 123°51'201529.6
2016-May-02 16:31N 46°12' W 123°23'14219.4
2016-May-02 16:27N 46°10' W 123°03'3336.1
2016-May-02 15:32N 46°11' W 123°51'331237.2
2016-May-02 15:30N 46°10' W 123°03'0 0.1
2016-May-02 15:24N 46°10' W 123°03'14184.7
2016-May-02 15:19N 46°12' W 123°23'2024.9
2016-May-02 14:32N 46°11' W 123°51'331250.1
2016-May-02 14:30N 46°10' W 123°03'1448.8
2016-May-02 14:13N 46°12' W 123°23'14184.7
2016-May-02 14:09N 46°10' W 123°03'0 0.0
2016-May-02 13:33N 46°10' W 123°03'333000.3
2016-May-02 13:32N 46°11' W 123°51'201379.7
2016-May-02 13:31N 46°12' W 123°23'14115.5
2016-May-02 13:24N 46°10' W 123°03'3338.5
2016-May-02 12:32N 46°11' W 123°51'33392.2
2016-May-02 12:27N 46°10' W 123°03'14108.8
2016-May-02 12:19N 46°12' W 123°23'14111.7
2016-May-02 12:12N 46°10' W 123°03'3350.4
2016-May-02 11:32N 46°11' W 123°51'201407.3
2016-May-02 11:31N 46°12' W 123°23'14197.8
2016-May-02 11:27N 46°10' W 123°03'0 0.0
2016-May-02 10:33N 46°10' W 123°03'332791.0
2016-May-02 10:32N 46°11' W 123°51'201379.7
2016-May-02 10:31N 46°12' W 123°23'14198.6
2016-May-02 10:27N 46°10' W 123°03'0 0.0
2016-May-02 09:33N 46°10' W 123°03'0 1.5
2016-May-02 09:33N 46°10' W 123°03'333333.7
2016-May-02 09:32N 46°11' W 123°51'20170.0
2016-May-02 09:25N 46°12' W 123°23'2022.1
2016-May-02 08:32N 46°11' W 123°51'201436.0
2016-May-02 08:31N 46°12' W 123°23'14540.3
2016-May-02 08:30N 46°10' W 123°03'0 0.1
2016-May-02 08:27N 46°10' W 123°03'0 0.0
2016-May-02 07:33N 46°10' W 123°03'0 1.4
2016-May-02 07:33N 46°10' W 123°03'333428.9
2016-May-02 07:32N 46°11' W 123°51'201303.0
2016-May-02 07:31N 46°12' W 123°23'1414.4
2016-May-02 06:33N 46°10' W 123°03'0 1.4
2016-May-02 06:33N 46°10' W 123°03'333333.7
2016-May-02 06:32N 46°11' W 123°51'20170.0
2016-May-02 06:25N 46°12' W 123°23'0 0.0
2016-May-02 05:31N 46°12' W 123°23'14717.8
2016-May-02 05:30N 46°10' W 123°03'0 1.1
2016-May-02 05:30N 46°10' W 123°03'333428.9
2016-May-02 05:29N 46°11' W 123°51'3335.7
2016-May-02 04:33N 46°10' W 123°03'0 1.2
2016-May-02 04:33N 46°10' W 123°03'333333.7
2016-May-02 04:32N 46°11' W 123°51'201279.3
2016-May-02 04:31N 46°12' W 123°23'1414.4
2016-May-02 03:33N 46°10' W 123°03'332449.2
2016-May-02 03:32N 46°11' W 123°51'201234.5
2016-May-02 03:31N 46°12' W 123°23'14558.3
2016-May-02 03:30N 46°10' W 123°03'0 0.0
2016-May-02 02:33N 46°10' W 123°03'333428.9
2016-May-02 02:32N 46°11' W 123°51'33952.5
2016-May-02 02:30N 46°10' W 123°03'14174.5
2016-May-02 02:25N 46°12' W 123°23'1416.0
2016-May-02 01:33N 46°10' W 123°03'0 1.2
2016-May-02 01:33N 46°10' W 123°03'333636.7
2016-May-02 01:32N 46°11' W 123°51'201256.5
2016-May-02 01:31N 46°12' W 123°23'1414.3
2016-May-02 00:33N 46°10' W 123°03'333636.7
2016-May-02 00:32N 46°11' W 123°51'33390.9
2016-May-02 00:27N 46°10' W 123°03'0 0.0
2016-May-01 23:33N 46°10' W 123°03'0 1.1
2016-May-01 23:33N 46°10' W 123°03'333750.4
2016-May-01 23:32N 46°11' W 123°51'3333.6
2016-May-01 22:33N 46°10' W 123°03'334138.4
2016-May-01 22:32N 46°11' W 123°51'201172.7
2016-May-01 22:31N 46°12' W 123°23'14117.4
2016-May-01 22:24N 46°10' W 123°03'0 0.0
2016-May-01 21:33N 46°10' W 123°03'333529.8
2016-May-01 21:32N 46°11' W 123°51'33975.7
2016-May-01 21:30N 46°10' W 123°03'3334.5
2016-May-01 20:32N 46°11' W 123°51'201256.5
2016-May-01 20:31N 46°12' W 123°23'14738.9
2016-May-01 20:30N 46°10' W 123°03'0 0.0
2016-May-01 20:18N 46°10' W 123°03'0 0.0
2016-May-01 19:33N 46°10' W 123°03'334000.4
2016-May-01 19:32N 46°11' W 123°51'33181.0
2016-May-01 19:21N 46°10' W 123°03'1460.2
2016-May-01 19:07N 46°12' W 123°23'2033.5
2016-May-01 18:32N 46°11' W 123°51'33364.8
2016-May-01 18:27N 46°10' W 123°03'0 0.4
2016-May-01 18:24N 46°10' W 123°03'1477.1
2016-May-01 18:13N 46°12' W 123°23'1420.7
2016-May-01 17:33N 46°10' W 123°03'333750.4
2016-May-01 17:32N 46°11' W 123°51'33247.4
2016-May-01 17:24N 46°10' W 123°03'14172.1
2016-May-01 17:19N 46°12' W 123°23'1418.0
2016-May-01 16:33N 46°10' W 123°03'334138.4
2016-May-01 16:32N 46°11' W 123°51'33952.5
2016-May-01 16:30N 46°10' W 123°03'14172.1
2016-May-01 16:25N 46°12' W 123°23'1415.9
2016-May-01 15:33N 46°10' W 123°03'334138.4
2016-May-01 15:32N 46°11' W 123°51'2090.4
2016-May-01 15:19N 46°12' W 123°23'2025.0
2016-May-01 14:32N 46°11' W 123°51'33937.6
2016-May-01 14:30N 46°10' W 123°03'0 0.2
2016-May-01 14:27N 46°10' W 123°03'14571.0
2016-May-01 14:25N 46°12' W 123°23'1416.1
2016-May-01 13:33N 46°10' W 123°03'0 0.7
2016-May-01 13:33N 46°10' W 123°03'334800.5
2016-May-01 13:32N 46°11' W 123°51'201099.4
2016-May-01 13:31N 46°12' W 123°23'1414.3
2016-May-01 12:33N 46°10' W 123°03'334286.1
2016-May-01 12:32N 46°11' W 123°51'201153.5
2016-May-01 12:31N 46°12' W 123°23'14785.0
2016-May-01 12:30N 46°10' W 123°03'0 0.0
2016-May-01 11:33N 46°10' W 123°03'0 1.5
2016-May-01 11:33N 46°10' W 123°03'334444.9
2016-May-01 11:32N 46°11' W 123°51'0 0.0
2016-May-01 10:32N 46°11' W 123°51'331875.2
2016-May-01 10:31N 46°10' W 123°03'0 0.1
2016-May-01 10:27N 46°10' W 123°03'14436.9
2016-May-01 10:25N 46°12' W 123°23'2022.1
2016-May-01 09:32N 46°11' W 123°51'20167.5
2016-May-01 09:25N 46°12' W 123°23'1450246.6
2016-May-01 09:25N 46°10' W 123°03'0 0.1
2016-May-01 09:21N 46°10' W 123°03'3340.9
2016-May-01 08:32N 46°11' W 123°51'331739.3
2016-May-01 08:31N 46°10' W 123°03'0 0.4
2016-May-01 08:30N 46°10' W 123°03'14418.7
2016-May-01 08:28N 46°12' W 123°23'2021.0
2016-May-01 07:32N 46°11' W 123°51'331791.2
2016-May-01 07:31N 46°10' W 123°03'14277.6
2016-May-01 07:28N 46°12' W 123°23'1484.9
2016-May-01 07:18N 46°10' W 123°03'3341.9
2016-May-01 06:31N 46°11' W 123°51'2098.5
2016-May-01 06:19N 46°12' W 123°23'1473.8
2016-May-01 06:07N 46°10' W 123°03'3357.1
2016-May-01 05:32N 46°11' W 123°51'201082.5
2016-May-01 05:31N 46°12' W 123°23'1416748.9
2016-May-01 05:31N 46°10' W 123°03'0 0.0
2016-May-01 04:33N 46°10' W 123°03'332222.4
2016-May-01 04:32N 46°11' W 123°51'0 0.0
2016-May-01 03:32N 46°11' W 123°51'33392.2
2016-May-01 03:27N 46°10' W 123°03'0 0.1
2016-May-01 03:22N 46°10' W 123°03'14280.7
2016-May-01 03:19N 46°12' W 123°23'1418.2
2016-May-01 02:33N 46°10' W 123°03'332182.0
2016-May-01 02:32N 46°11' W 123°51'33197.4
2016-May-01 02:22N 46°10' W 123°03'3340.1
2016-May-01 01:32N 46°11' W 123°51'331818.4
2016-May-01 01:31N 46°10' W 123°03'0 0.1
2016-May-01 01:27N 46°10' W 123°03'14422.2
2016-May-01 01:25N 46°12' W 123°23'1416.1
2016-May-01 00:33N 46°10' W 123°03'332307.9
2016-May-01 00:32N 46°11' W 123°51'33104.4
2016-May-01 00:13N 46°10' W 123°03'14139.2
2016-May-01 00:07N 46°12' W 123°23'1424.7
2016-Apr-30 23:33N 46°10' W 123°03'332182.0
2016-Apr-30 23:32N 46°11' W 123°51'331739.3
2016-Apr-30 23:31N 46°10' W 123°03'1470.0
2016-Apr-30 23:19N 46°12' W 123°23'2025.1
2016-Apr-30 22:32N 46°11' W 123°51'20977.3
2016-Apr-30 22:31N 46°12' W 123°23'14897.2
2016-Apr-30 22:30N 46°10' W 123°03'0 0.1
2016-Apr-30 22:25N 46°10' W 123°03'3337.9
2016-Apr-30 21:32N 46°11' W 123°51'33945.0
2016-Apr-30 21:30N 46°10' W 123°03'0 0.3
2016-Apr-30 21:28N 46°10' W 123°03'14283.9
2016-Apr-30 21:25N 46°12' W 123°23'2022.2
2016-Apr-30 20:32N 46°11' W 123°51'331690.3
2016-Apr-30 20:31N 46°10' W 123°03'0 0.0
2016-Apr-30 20:21N 46°10' W 123°03'14389.5
2016-Apr-30 20:19N 46°12' W 123°23'2025.1
2016-Apr-30 19:32N 46°11' W 123°51'33470.6
2016-Apr-30 19:28N 46°10' W 123°03'0 0.4
2016-Apr-30 19:27N 46°10' W 123°03'14405.2
2016-Apr-30 19:25N 46°12' W 123°23'1416.1
2016-Apr-30 18:33N 46°10' W 123°03'332143.1
2016-Apr-30 18:32N 46°11' W 123°51'20991.0
2016-Apr-30 18:31N 46°12' W 123°23'14140.0
2016-Apr-30 18:25N 46°10' W 123°03'0 0.0
2016-Apr-30 17:33N 46°10' W 123°03'332307.9
2016-Apr-30 17:32N 46°11' W 123°51'20977.3
2016-Apr-30 17:31N 46°12' W 123°23'1416748.9
2016-Apr-30 17:31N 46°10' W 123°03'0 0.0
2016-Apr-30 16:33N 46°10' W 123°03'332105.5
2016-Apr-30 16:32N 46°11' W 123°51'331666.8
2016-Apr-30 16:31N 46°10' W 123°03'14138.8
2016-Apr-30 16:25N 46°12' W 123°23'2022.2
2016-Apr-30 15:32N 46°11' W 123°51'20950.9
2016-Apr-30 15:31N 46°12' W 123°23'14140.0
2016-Apr-30 15:25N 46°10' W 123°03'0 0.4
2016-Apr-30 15:24N 46°10' W 123°03'0 0.0
2016-Apr-30 14:33N 46°10' W 123°03'332307.9
2016-Apr-30 14:32N 46°11' W 123°51'331558.6
2016-Apr-30 14:31N 46°10' W 123°03'14141.1
2016-Apr-30 14:25N 46°12' W 123°23'2022.2
2016-Apr-30 13:32N 46°11' W 123°51'33151.1
2016-Apr-30 13:19N 46°10' W 123°03'0 0.1
2016-Apr-30 13:12N 46°10' W 123°03'14163.1
2016-Apr-30 13:07N 46°12' W 123°23'1424.7
2016-Apr-30 12:33N 46°10' W 123°03'332222.4
2016-Apr-30 12:32N 46°11' W 123°51'20162.5
2016-Apr-30 12:25N 46°12' W 123°23'1416749.9
2016-Apr-30 12:25N 46°10' W 123°03'3338.0
2016-Apr-30 11:32N 46°11' W 123°51'20879.5
2016-Apr-30 11:31N 46°12' W 123°23'141046.7
2016-Apr-30 11:30N 46°10' W 123°03'0 0.1
2016-Apr-30 11:25N 46°10' W 123°03'0 0.0
2016-Apr-30 10:33N 46°10' W 123°03'0 0.6
2016-Apr-30 10:33N 46°10' W 123°03'3310001.0
2016-Apr-30 10:32N 46°11' W 123°51'20858.1
2016-Apr-30 10:31N 46°12' W 123°23'2019.0
2016-Apr-30 09:29N 46°11' W 123°51'33945.0
2016-Apr-30 09:27N 46°10' W 123°03'14392.5
2016-Apr-30 09:25N 46°12' W 123°23'147178.6
2016-Apr-30 09:25N 46°10' W 123°03'3338.0
2016-Apr-30 08:32N 46°11' W 123°51'20925.8
2016-Apr-30 08:31N 46°12' W 123°23'141004.9
2016-Apr-30 08:30N 46°10' W 123°03'0 0.0
2016-Apr-30 08:22N 46°10' W 123°03'3340.3
2016-Apr-30 07:32N 46°11' W 123°51'331500.2
2016-Apr-30 07:31N 46°10' W 123°03'0 0.1
2016-Apr-30 07:27N 46°10' W 123°03'14377.8
2016-Apr-30 07:25N 46°12' W 123°23'2022.3
2016-Apr-30 06:32N 46°11' W 123°51'20913.8
2016-Apr-30 06:31N 46°12' W 123°23'1485.2
2016-Apr-30 06:21N 46°10' W 123°03'0 0.0
2016-Apr-30 06:13N 46°10' W 123°03'1419.9
2016-Apr-30 05:31N 46°12' W 123°23'20733.0
2016-Apr-30 05:30N 46°11' W 123°51'33923.2
2016-Apr-30 05:27N 46°10' W 123°03'0 0.1
2016-Apr-30 05:16N 46°10' W 123°03'0 0.0
2016-Apr-30 04:33N 46°10' W 123°03'332143.1
2016-Apr-30 04:32N 46°11' W 123°51'20890.7
2016-Apr-30 04:31N 46°12' W 123°23'14276.1
2016-Apr-30 04:28N 46°10' W 123°03'0 0.0
2016-Apr-30 03:33N 46°10' W 123°03'332353.2
2016-Apr-30 03:33N 46°11' W 123°51'33451.2
2016-Apr-30 03:28N 46°10' W 123°03'14283.9
2016-Apr-30 03:25N 46°12' W 123°23'1416.2
2016-Apr-30 02:33N 46°10' W 123°03'332222.4
2016-Apr-30 02:33N 46°11' W 123°51'331519.2
2016-Apr-30 02:31N 46°10' W 123°03'1469.2
2016-Apr-30 02:19N 46°12' W 123°23'1418.3
2016-Apr-30 01:33N 46°10' W 123°03'14366.7
2016-Apr-30 01:31N 46°12' W 123°23'20748.6
2016-Apr-30 01:30N 46°11' W 123°51'331411.9
2016-Apr-30 01:28N 46°10' W 123°03'3336.0
2016-Apr-30 00:32N 46°11' W 123°51'331445.9
2016-Apr-30 00:31N 46°10' W 123°03'0 1.0
2016-Apr-30 00:30N 46°10' W 123°03'14159.0
2016-Apr-30 00:25N 46°12' W 123°23'2022.3
2016-Apr-29 23:33N 46°11' W 123°51'331379.5
2016-Apr-29 23:31N 46°10' W 123°03'0 0.6
2016-Apr-29 23:30N 46°10' W 123°03'14158.5
2016-Apr-29 23:25N 46°12' W 123°23'2022.3
2016-Apr-29 22:33N 46°11' W 123°51'331237.2
2016-Apr-29 22:31N 46°10' W 123°03'0 0.1
2016-Apr-29 22:28N 46°10' W 123°03'14282.3
2016-Apr-29 22:25N 46°12' W 123°23'1416.2
2016-Apr-29 21:33N 46°10' W 123°03'332222.4
2016-Apr-29 21:33N 46°11' W 123°51'331379.5
2016-Apr-29 21:31N 46°10' W 123°03'14140.8
2016-Apr-29 21:25N 46°12' W 123°23'1416.2
2016-Apr-29 20:33N 46°10' W 123°03'332143.1
2016-Apr-29 20:33N 46°11' W 123°51'33452.9
2016-Apr-29 20:28N 46°10' W 123°03'1493.4
2016-Apr-29 20:19N 46°12' W 123°23'1418.3
2016-Apr-29 19:33N 46°10' W 123°03'332264.4
2016-Apr-29 19:33N 46°11' W 123°51'20818.2
2016-Apr-29 19:31N 46°12' W 123°23'14277.6
2016-Apr-29 19:28N 46°10' W 123°03'0 0.0
2016-Apr-29 18:33N 46°10' W 123°03'332400.2
2016-Apr-29 18:33N 46°11' W 123°51'20781.8
2016-Apr-29 18:31N 46°12' W 123°23'14274.6
2016-Apr-29 18:28N 46°10' W 123°03'3336.1
2016-Apr-29 17:33N 46°11' W 123°51'20756.6
2016-Apr-29 17:31N 46°12' W 123°23'1487.1
2016-Apr-29 17:21N 46°10' W 123°03'0 0.0
2016-Apr-29 16:33N 46°10' W 123°03'332182.0
2016-Apr-29 16:33N 46°11' W 123°51'331411.9
2016-Apr-29 16:31N 46°10' W 123°03'1446.5
2016-Apr-29 16:13N 46°12' W 123°23'2028.9
2016-Apr-29 15:33N 46°11' W 123°51'33190.8
2016-Apr-29 15:22N 46°10' W 123°03'3340.4
2016-Apr-29 14:33N 46°11' W 123°51'331395.5
2016-Apr-29 14:31N 46°10' W 123°03'0 0.1
2016-Apr-29 14:27N 46°10' W 123°03'1458.2
2016-Apr-29 14:13N 46°12' W 123°23'1421.1
2016-Apr-29 13:33N 46°10' W 123°03'332182.0
2016-Apr-29 13:33N 46°11' W 123°51'33446.1
2016-Apr-29 13:28N 46°10' W 123°03'1493.7
2016-Apr-29 13:19N 46°12' W 123°23'2025.2
2016-Apr-29 12:33N 46°11' W 123°51'33148.2
2016-Apr-29 12:19N 46°10' W 123°03'0 3.6
2016-Apr-29 12:19N 46°10' W 123°03'3343.1
2016-Apr-29 11:33N 46°11' W 123°51'20773.2
2016-Apr-29 11:31N 46°12' W 123°23'148373.9
2016-Apr-29 11:31N 46°10' W 123°03'0 0.1
2016-Apr-29 11:28N 46°10' W 123°03'3336.1
2016-Apr-29 10:33N 46°11' W 123°51'331263.3
2016-Apr-29 10:31N 46°10' W 123°03'0 0.1
2016-Apr-29 10:28N 46°10' W 123°03'14279.1
2016-Apr-29 10:25N 46°12' W 123°23'2022.4
2016-Apr-29 09:33N 46°11' W 123°51'20773.2
2016-Apr-29 09:31N 46°12' W 123°23'14276.1
2016-Apr-29 09:28N 46°10' W 123°03'0 0.0
2016-Apr-29 09:13N 46°10' W 123°03'3349.5
2016-Apr-29 08:33N 46°11' W 123°51'331318.8
2016-Apr-29 08:31N 46°10' W 123°03'0 0.1
2016-Apr-29 08:28N 46°10' W 123°03'14290.4
2016-Apr-29 08:25N 46°12' W 123°23'2022.3
2016-Apr-29 07:33N 46°11' W 123°51'20773.2
2016-Apr-29 07:31N 46°12' W 123°23'141674.8
2016-Apr-29 07:31N 46°10' W 123°03'0 0.1
2016-Apr-29 07:28N 46°10' W 123°03'3336.0
2016-Apr-29 06:33N 46°11' W 123°51'20790.6
2016-Apr-29 06:31N 46°12' W 123°23'1416748.9
2016-Apr-29 06:31N 46°10' W 123°03'0 0.1
2016-Apr-29 06:28N 46°10' W 123°03'3336.4
2016-Apr-29 05:33N 46°11' W 123°51'331276.7
2016-Apr-29 05:31N 46°10' W 123°03'0 0.1
2016-Apr-29 05:28N 46°10' W 123°03'14344.1
2016-Apr-29 05:25N 46°12' W 123°23'2022.4
2016-Apr-29 04:33N 46°11' W 123°51'33392.2
2016-Apr-29 04:28N 46°10' W 123°03'0 0.1
2016-Apr-29 04:22N 46°10' W 123°03'14287.1
2016-Apr-29 04:19N 46°12' W 123°23'2025.2
2016-Apr-29 03:33N 46°11' W 123°51'20756.6
2016-Apr-29 03:31N 46°12' W 123°23'14235.9
2016-Apr-29 03:28N 46°10' W 123°03'0 0.0
2016-Apr-29 03:13N 46°10' W 123°03'0 0.0
2016-Apr-29 02:33N 46°10' W 123°03'331445.9
2016-Apr-29 02:32N 46°11' W 123°51'33286.4
2016-Apr-29 02:25N 46°10' W 123°03'14185.4
2016-Apr-29 02:20N 46°12' W 123°23'2024.7
2016-Apr-29 01:33N 46°11' W 123°51'20689.8
2016-Apr-29 01:31N 46°12' W 123°23'14279.2
2016-Apr-29 01:28N 46°10' W 123°03'0 0.1
2016-Apr-29 01:22N 46°10' W 123°03'3340.9
2016-Apr-29 00:33N 46°11' W 123°51'33393.5
2016-Apr-29 00:28N 46°10' W 123°03'0 0.1
2016-Apr-29 00:25N 46°10' W 123°03'14140.4
2016-Apr-29 00:19N 46°12' W 123°23'0 0.0
2016-Apr-28 23:31N 46°12' W 123°23'1425123.3
2016-Apr-28 23:31N 46°10' W 123°03'33463.4
2016-Apr-28 23:27N 46°11' W 123°51'33389.6
2016-Apr-28 23:22N 46°10' W 123°03'3340.9
2016-Apr-28 22:33N 46°11' W 123°51'33434.8
2016-Apr-28 22:28N 46°10' W 123°03'14280.7
2016-Apr-28 22:25N 46°12' W 123°23'14240.4
2016-Apr-28 22:22N 46°10' W 123°03'3340.9
2016-Apr-28 21:33N 46°11' W 123°51'20718.0
2016-Apr-28 21:31N 46°12' W 123°23'14274.6
2016-Apr-28 21:28N 46°10' W 123°03'0 0.9
2016-Apr-28 21:28N 46°10' W 123°03'3336.4
2016-Apr-28 20:33N 46°11' W 123°51'20725.4
2016-Apr-28 20:31N 46°12' W 123°23'14276.1
2016-Apr-28 20:28N 46°10' W 123°03'0 0.0
2016-Apr-28 20:19N 46°10' W 123°03'3343.6
2016-Apr-28 19:33N 46°11' W 123°51'331250.1
2016-Apr-28 19:31N 46°10' W 123°03'0 0.1
2016-Apr-28 19:28N 46°10' W 123°03'14328.4
2016-Apr-28 19:25N 46°12' W 123°23'2022.4
2016-Apr-28 18:33N 46°11' W 123°51'33930.3
2016-Apr-28 18:31N 46°10' W 123°03'0 0.1
2016-Apr-28 18:25N 46°10' W 123°03'1410049.3
2016-Apr-28 18:25N 46°12' W 123°23'2022.4
2016-Apr-28 17:33N 46°11' W 123°51'20718.0
2016-Apr-28 17:31N 46°12' W 123°23'14273.1
2016-Apr-28 17:28N 46°10' W 123°03'0 0.0
2016-Apr-28 17:13N 46°10' W 123°03'3350.1
2016-Apr-28 16:33N 46°11' W 123°51'33431.7
2016-Apr-28 16:28N 46°10' W 123°03'0 0.1
2016-Apr-28 16:22N 46°10' W 123°03'14324.1
2016-Apr-28 16:19N 46°12' W 123°23'2025.3
2016-Apr-28 15:33N 46°11' W 123°51'331200.1
2016-Apr-28 15:31N 46°10' W 123°03'0 0.1
2016-Apr-28 15:28N 46°10' W 123°03'1457.6
2016-Apr-28 15:13N 46°12' W 123°23'2029.1
2016-Apr-28 14:33N 46°11' W 123°51'20153.6
2016-Apr-28 14:25N 46°12' W 123°23'141860.9
2016-Apr-28 14:25N 46°10' W 123°03'0 0.1
2016-Apr-28 14:22N 46°10' W 123°03'3340.6
2016-Apr-28 13:33N 46°11' W 123°51'20703.6
2016-Apr-28 13:31N 46°12' W 123°23'1492.0
2016-Apr-28 13:22N 46°10' W 123°03'3340.6
2016-Apr-28 12:33N 46°11' W 123°51'33419.6
2016-Apr-28 12:28N 46°10' W 123°03'0 2.2
2016-Apr-28 12:28N 46°10' W 123°03'14320.0
2016-Apr-28 12:25N 46°12' W 123°23'2022.4
2016-Apr-28 11:33N 46°11' W 123°51'331143.0
2016-Apr-28 11:31N 46°10' W 123°03'0 0.1
2016-Apr-28 11:28N 46°10' W 123°03'3336.4
2016-Apr-28 10:33N 46°11' W 123°51'20676.6
2016-Apr-28 10:31N 46°12' W 123°23'142392.5
2016-Apr-28 10:31N 46°10' W 123°03'0 0.0
2016-Apr-28 10:22N 46°10' W 123°03'3340.6
2016-Apr-28 09:33N 46°11' W 123°51'20689.8
2016-Apr-28 09:31N 46°12' W 123°23'142184.5
2016-Apr-28 09:31N 46°10' W 123°03'0 0.0
2016-Apr-28 09:22N 46°10' W 123°03'3340.6
2016-Apr-28 08:33N 46°11' W 123°51'20676.6
2016-Apr-28 08:31N 46°12' W 123°23'14273.1
2016-Apr-28 08:28N 46°10' W 123°03'0 0.1
2016-Apr-28 08:22N 46°10' W 123°03'3340.9
2016-Apr-28 07:33N 46°11' W 123°51'20683.1
2016-Apr-28 07:31N 46°12' W 123°23'142184.5
2016-Apr-28 07:31N 46°10' W 123°03'0 0.0
2016-Apr-28 07:22N 46°10' W 123°03'3340.5
2016-Apr-28 06:33N 46°11' W 123°51'20696.7
2016-Apr-28 06:31N 46°12' W 123°23'1416748.9
2016-Apr-28 06:31N 46°10' W 123°03'0 1.0
2016-Apr-28 06:31N 46°10' W 123°03'3334.6
2016-Apr-28 05:33N 46°11' W 123°51'20663.8
2016-Apr-28 05:31N 46°12' W 123°23'14280.7
2016-Apr-28 05:28N 46°10' W 123°03'0 0.0
2016-Apr-28 05:18N 46°10' W 123°03'3344.1
2016-Apr-28 04:33N 46°11' W 123°51'20676.6
2016-Apr-28 04:31N 46°12' W 123°23'14966.2
2016-Apr-28 04:30N 46°10' W 123°03'0 0.0
2016-Apr-28 04:22N 46°10' W 123°03'0 0.0
2016-Apr-28 03:33N 46°10' W 123°03'335000.5
2016-Apr-28 03:33N 46°11' W 123°51'33412.4
2016-Apr-28 03:28N 46°10' W 123°03'1493.6
2016-Apr-28 03:19N 46°12' W 123°23'1418.3
2016-Apr-28 02:33N 46°10' W 123°03'335217.9
2016-Apr-28 02:33N 46°11' W 123°51'20150.7
2016-Apr-28 02:25N 46°12' W 123°23'1492.5
2016-Apr-28 02:16N 46°10' W 123°03'3346.4
2016-Apr-28 01:33N 46°11' W 123°51'20633.9
2016-Apr-28 01:31N 46°12' W 123°23'1416748.9
2016-Apr-28 01:31N 46°10' W 123°03'0 0.0
2016-Apr-28 01:12N 46°10' W 123°03'3350.7
2016-Apr-28 00:33N 46°11' W 123°51'20651.5
2016-Apr-28 00:31N 46°12' W 123°23'141046.7
2016-Apr-28 00:30N 46°10' W 123°03'0 0.2
2016-Apr-28 00:28N 46°10' W 123°03'3336.3
2016-Apr-27 23:33N 46°11' W 123°51'20657.6
2016-Apr-27 23:31N 46°12' W 123°23'141025.4
2016-Apr-27 23:30N 46°10' W 123°03'0 0.2
2016-Apr-27 23:28N 46°10' W 123°03'3336.2
2016-Apr-27 22:33N 46°11' W 123°51'20657.6
2016-Apr-27 22:31N 46°12' W 123°23'141092.2
2016-Apr-27 22:30N 46°10' W 123°03'0 0.0
2016-Apr-27 22:22N 46°10' W 123°03'0 0.0
2016-Apr-27 21:33N 46°10' W 123°03'335217.9
2016-Apr-27 21:33N 46°11' W 123°51'20639.7
2016-Apr-27 21:31N 46°12' W 123°23'14276.1
2016-Apr-27 21:28N 46°10' W 123°03'3336.3
2016-Apr-27 20:33N 46°11' W 123°51'20651.5
2016-Apr-27 20:31N 46°12' W 123°23'1410050.0
2016-Apr-27 20:31N 46°10' W 123°03'0 0.1
2016-Apr-27 20:24N 46°10' W 123°03'0 0.0
2016-Apr-27 19:33N 46°10' W 123°03'335000.5
2016-Apr-27 19:33N 46°11' W 123°51'20622.7
2016-Apr-27 19:31N 46°12' W 123°23'14282.3
2016-Apr-27 19:28N 46°10' W 123°03'0 0.0
2016-Apr-27 18:33N 46°10' W 123°03'334444.9
2016-Apr-27 18:33N 46°11' W 123°51'33409.6
2016-Apr-27 18:28N 46°10' W 123°03'14282.3
2016-Apr-27 18:25N 46°12' W 123°23'2022.5
2016-Apr-27 17:33N 46°11' W 123°51'33774.3
2016-Apr-27 17:30N 46°10' W 123°03'14160.0
2016-Apr-27 17:25N 46°12' W 123°23'14273.1
2016-Apr-27 17:22N 46°10' W 123°03'3340.8
2016-Apr-27 16:33N 46°11' W 123°51'20617.2
2016-Apr-27 16:31N 46°12' W 123°23'14279.1
2016-Apr-27 16:28N 46°10' W 123°03'0 0.1
2016-Apr-27 16:24N 46°10' W 123°03'3338.9
2016-Apr-27 15:33N 46°11' W 123°51'20606.6
2016-Apr-27 15:31N 46°12' W 123°23'14280.7
2016-Apr-27 15:28N 46°10' W 123°03'0 0.0
2016-Apr-27 15:18N 46°10' W 123°03'3344.1
2016-Apr-27 14:33N 46°11' W 123°51'20611.9
2016-Apr-27 14:31N 46°12' W 123°23'141196.3
2016-Apr-27 14:30N 46°10' W 123°03'0 0.2
2016-Apr-27 14:28N 46°10' W 123°03'3336.3
2016-Apr-27 13:33N 46°11' W 123°51'20611.9
2016-Apr-27 13:31N 46°12' W 123°23'1450246.6
2016-Apr-27 13:31N 46°10' W 123°03'0 0.0
2016-Apr-27 13:18N 46°10' W 123°03'0 0.0
2016-Apr-27 12:33N 46°10' W 123°03'334800.4
2016-Apr-27 12:33N 46°11' W 123°51'20241.0
2016-Apr-27 12:28N 46°12' W 123°23'14276.1
2016-Apr-27 12:25N 46°10' W 123°03'3338.4
2016-Apr-27 11:33N 46°11' W 123°51'20611.9
2016-Apr-27 11:31N 46°12' W 123°23'141225.4
2016-Apr-27 11:30N 46°10' W 123°03'0 0.2
2016-Apr-27 11:28N 46°10' W 123°03'0 0.0
2016-Apr-27 10:33N 46°10' W 123°03'335217.9
2016-Apr-27 10:33N 46°11' W 123°51'331034.6
2016-Apr-27 10:31N 46°10' W 123°03'1450246.6
2016-Apr-27 10:31N 46°12' W 123°23'2020.2
2016-Apr-27 09:33N 46°11' W 123°51'20591.3
2016-Apr-27 09:31N 46°12' W 123°23'141322.2
2016-Apr-27 09:30N 46°10' W 123°03'0 0.2
2016-Apr-27 09:28N 46°10' W 123°03'3336.3
2016-Apr-27 08:33N 46°11' W 123°51'20606.6
2016-Apr-27 08:31N 46°12' W 123°23'14138.4
2016-Apr-27 08:25N 46°10' W 123°03'0 0.6
2016-Apr-27 08:24N 46°10' W 123°03'3338.9
2016-Apr-27 07:33N 46°11' W 123°51'20606.6
2016-Apr-27 07:31N 46°12' W 123°23'1410050.0
2016-Apr-27 07:31N 46°10' W 123°03'0 0.6
2016-Apr-27 07:30N 46°10' W 123°03'0 0.0
2016-Apr-27 06:33N 46°10' W 123°03'335217.9
2016-Apr-27 06:33N 46°11' W 123°51'33398.7
2016-Apr-27 06:28N 46°10' W 123°03'14288.8
2016-Apr-27 06:25N 46°12' W 123°23'2022.5
2016-Apr-27 05:33N 46°11' W 123°51'33764.4
2016-Apr-27 05:31N 46°10' W 123°03'0 0.3
2016-Apr-27 05:28N 46°10' W 123°03'14277.6
2016-Apr-27 05:25N 46°12' W 123°23'2022.6
2016-Apr-27 04:33N 46°11' W 123°51'20586.4
2016-Apr-27 04:31N 46°12' W 123°23'141256.1
2016-Apr-27 04:30N 46°10' W 123°03'0 0.2
2016-Apr-27 04:28N 46°10' W 123°03'3336.4
2016-Apr-27 03:33N 46°11' W 123°51'20146.9
2016-Apr-27 03:25N 46°12' W 123°23'1412562.5
2016-Apr-27 03:25N 46°10' W 123°03'0 1.2
2016-Apr-27 03:24N 46°10' W 123°03'3338.9
2016-Apr-27 02:33N 46°11' W 123°51'20601.4
2016-Apr-27 02:31N 46°12' W 123°23'14273.1
2016-Apr-27 02:28N 46°10' W 123°03'0 0.0
2016-Apr-27 02:10N 46°10' W 123°03'3355.0
2016-Apr-27 01:33N 46°11' W 123°51'33764.4
2016-Apr-27 01:31N 46°10' W 123°03'14155.1
2016-Apr-27 01:25N 46°12' W 123°23'14273.1
2016-Apr-27 01:22N 46°10' W 123°03'3340.8
2016-Apr-27 00:33N 46°11' W 123°51'20591.3
2016-Apr-27 00:31N 46°12' W 123°23'1493.2
2016-Apr-27 00:22N 46°10' W 123°03'3340.8
2016-Apr-26 23:33N 46°11' W 123°51'33967.8
2016-Apr-26 23:31N 46°10' W 123°03'1450246.6
2016-Apr-26 23:31N 46°12' W 123°23'14237.0
2016-Apr-26 23:28N 46°10' W 123°03'3336.8
2016-Apr-26 22:33N 46°11' W 123°51'20576.8
2016-Apr-26 22:31N 46°12' W 123°23'141477.7
2016-Apr-26 22:31N 46°10' W 123°03'0 0.1
2016-Apr-26 22:28N 46°10' W 123°03'3336.4
2016-Apr-26 21:33N 46°11' W 123°51'33384.7
2016-Apr-26 21:28N 46°10' W 123°03'0 1.0
2016-Apr-26 21:28N 46°10' W 123°03'14346.5
2016-Apr-26 21:25N 46°12' W 123°23'2022.6
2016-Apr-26 20:33N 46°11' W 123°51'20545.5
2016-Apr-26 20:31N 46°12' W 123°23'144567.9
2016-Apr-26 20:31N 46°10' W 123°03'0 1.3
2016-Apr-26 20:31N 46°10' W 123°03'3334.8
2016-Apr-26 19:33N 46°11' W 123°51'20581.5
2016-Apr-26 19:31N 46°12' W 123°23'14255.1
2016-Apr-26 19:28N 46°10' W 123°03'0 0.1
2016-Apr-26 19:22N 46°10' W 123°03'3341.4
2016-Apr-26 18:33N 46°11' W 123°51'33750.1
2016-Apr-26 18:31N 46°10' W 123°03'0 0.1
2016-Apr-26 18:28N 46°10' W 123°03'1456.8
2016-Apr-26 18:13N 46°12' W 123°23'2029.4
2016-Apr-26 17:33N 46°11' W 123°51'20558.5
2016-Apr-26 17:31N 46°12' W 123°23'1468.3
2016-Apr-26 17:19N 46°10' W 123°03'3343.8
2016-Apr-26 16:33N 46°11' W 123°51'20549.7
2016-Apr-26 16:31N 46°12' W 123°23'141794.4
2016-Apr-26 16:31N 46°10' W 123°03'0 0.3
2016-Apr-26 16:28N 46°10' W 123°03'3336.6
2016-Apr-26 15:33N 46°11' W 123°51'33232.6
2016-Apr-26 15:25N 46°10' W 123°03'14151.8
2016-Apr-26 15:19N 46°12' W 123°23'2025.5
2016-Apr-26 14:33N 46°11' W 123°51'20601.4
2016-Apr-26 14:31N 46°12' W 123°23'141395.6
2016-Apr-26 14:31N 46°10' W 123°03'0 0.1
2016-Apr-26 14:28N 46°10' W 123°03'3336.6
2016-Apr-26 13:33N 46°11' W 123°51'20240.1
2016-Apr-26 13:28N 46°12' W 123°23'141794.5
2016-Apr-26 13:28N 46°10' W 123°03'0 0.1
2016-Apr-26 13:25N 46°10' W 123°03'3338.9
2016-Apr-26 12:33N 46°11' W 123°51'33794.8
2016-Apr-26 12:31N 46°10' W 123°03'14151.8
2016-Apr-26 12:25N 46°12' W 123°23'142791.5
2016-Apr-26 12:25N 46°10' W 123°03'3338.8
2016-Apr-26 11:33N 46°11' W 123°51'33833.4
2016-Apr-26 11:31N 46°10' W 123°03'14310.2
2016-Apr-26 11:28N 46°12' W 123°23'1469.8
2016-Apr-26 11:16N 46°10' W 123°03'3346.6
2016-Apr-26 10:33N 46°11' W 123°51'20229.9
2016-Apr-26 10:28N 46°12' W 123°23'1450243.2
2016-Apr-26 10:28N 46°10' W 123°03'0 0.0
2016-Apr-26 10:16N 46°10' W 123°03'3347.0
2016-Apr-26 09:33N 46°11' W 123°51'33390.9
2016-Apr-26 09:28N 46°10' W 123°03'0 1.4
2016-Apr-26 09:28N 46°10' W 123°03'14299.1
2016-Apr-26 09:25N 46°12' W 123°23'2022.6
2016-Apr-26 08:33N 46°11' W 123°51'20541.3
2016-Apr-26 08:31N 46°12' W 123°23'1490.4
2016-Apr-26 08:22N 46°10' W 123°03'0 0.0
2016-Apr-26 08:10N 46°10' W 123°03'3354.3
2016-Apr-26 07:33N 46°11' W 123°51'20562.9
2016-Apr-26 07:31N 46°12' W 123°23'1450243.2
2016-Apr-26 07:31N 46°10' W 123°03'0 0.1
2016-Apr-26 07:28N 46°10' W 123°03'3336.6
2016-Apr-26 06:33N 46°11' W 123°51'20143.6
2016-Apr-26 06:25N 46°12' W 123°23'14255.1
2016-Apr-26 06:22N 46°10' W 123°03'0 0.1
2016-Apr-26 06:16N 46°10' W 123°03'3346.6
2016-Apr-26 05:33N 46°11' W 123°51'33359.3
2016-Apr-26 05:28N 46°10' W 123°03'0 0.1
2016-Apr-26 05:22N 46°10' W 123°03'3338.9
2016-Apr-26 04:30N 46°11' W 123°51'33805.5
2016-Apr-26 04:28N 46°10' W 123°03'0 2.7
2016-Apr-26 04:28N 46°10' W 123°03'1497.2
2016-Apr-26 04:19N 46°12' W 123°23'2025.6
2016-Apr-26 03:33N 46°11' W 123°51'20529.1
2016-Apr-26 03:31N 46°12' W 123°23'14257.7
2016-Apr-26 03:28N 46°10' W 123°03'0 0.1
2016-Apr-26 03:19N 46°10' W 123°03'3344.1
2016-Apr-26 02:33N 46°11' W 123°51'20521.2
2016-Apr-26 02:31N 46°12' W 123°23'143589.0
2016-Apr-26 02:31N 46°10' W 123°03'0 2.4
2016-Apr-26 02:31N 46°10' W 123°03'3334.9
2016-Apr-26 01:33N 46°11' W 123°51'33759.6
2016-Apr-26 01:31N 46°10' W 123°03'0 0.3
2016-Apr-26 01:28N 46°10' W 123°03'3336.7
2016-Apr-26 00:33N 46°11' W 123°51'33784.4
2016-Apr-26 00:31N 46°10' W 123°03'0 0.1
2016-Apr-26 00:28N 46°10' W 123°03'0 0.0
2016-Apr-25 23:31N 46°10' W 123°03'010.8
2016-Apr-25 23:31N 46°10' W 123°03'334615.8
2016-Apr-25 23:30N 46°11' W 123°51'2050.4
2016-Apr-25 23:07N 46°12' W 123°23'2034.7
2016-Apr-25 22:33N 46°11' W 123°51'20513.6
2016-Apr-25 22:31N 46°12' W 123°23'142512.2
2016-Apr-25 22:31N 46°10' W 123°03'0 0.1
2016-Apr-25 22:25N 46°10' W 123°03'3338.8
2016-Apr-25 21:33N 46°11' W 123°51'20529.1
2016-Apr-25 21:31N 46°12' W 123°23'142512.2
2016-Apr-25 21:31N 46°10' W 123°03'0 5.4
2016-Apr-25 21:31N 46°10' W 123°03'0 0.0
2016-Apr-25 20:31N 46°10' W 123°03'335714.8
2016-Apr-25 20:30N 46°11' W 123°51'20222.0
2016-Apr-25 20:25N 46°12' W 123°23'14129.5
2016-Apr-25 20:19N 46°10' W 123°03'3344.2
2016-Apr-25 19:33N 46°11' W 123°51'20521.2
2016-Apr-25 19:31N 46°12' W 123°23'142512.2
2016-Apr-25 19:31N 46°10' W 123°03'0 0.1
2016-Apr-25 19:25N 46°10' W 123°03'3339.1
2016-Apr-25 18:33N 46°11' W 123°51'20499.0
2016-Apr-25 18:31N 46°12' W 123°23'143349.5
2016-Apr-25 18:31N 46°10' W 123°03'0 0.0
2016-Apr-25 18:16N 46°10' W 123°03'3347.3
2016-Apr-25 17:33N 46°11' W 123°51'33731.8
2016-Apr-25 17:31N 46°10' W 123°03'14151.4
2016-Apr-25 17:25N 46°12' W 123°23'142955.5
2016-Apr-25 17:25N 46°10' W 123°03'3338.9
2016-Apr-25 16:33N 46°11' W 123°51'33779.3
2016-Apr-25 16:31N 46°10' W 123°03'0 3.9
2016-Apr-25 16:31N 46°10' W 123°03'14151.8
2016-Apr-25 16:25N 46°12' W 123°23'2021.3
2016-Apr-25 15:30N 46°11' W 123°51'20341.6
2016-Apr-25 15:27N 46°12' W 123°23'1489.9
2016-Apr-25 15:17N 46°10' W 123°03'0 0.2
2016-Apr-25 15:13N 46°10' W 123°03'3350.2
2016-Apr-25 14:33N 46°11' W 123°51'33706.0
2016-Apr-25 14:31N 46°10' W 123°03'0 0.0
2016-Apr-25 14:19N 46°10' W 123°03'3344.1
2016-Apr-25 13:33N 46°11' W 123°51'33710.1
2016-Apr-25 13:31N 46°10' W 123°03'0 0.1
2016-Apr-25 13:25N 46°10' W 123°03'14144.4
2016-Apr-25 13:19N 46°12' W 123°23'2025.7
2016-Apr-25 12:33N 46°11' W 123°51'20509.9
2016-Apr-25 12:31N 46°12' W 123°23'142955.5
2016-Apr-25 12:31N 46°10' W 123°03'0 3.1
2016-Apr-25 12:31N 46°10' W 123°03'3335.0
2016-Apr-25 11:33N 46°11' W 123°51'33723.0
2016-Apr-25 11:31N 46°10' W 123°03'1457.6
2016-Apr-25 11:16N 46°12' W 123°23'142955.5
2016-Apr-25 11:16N 46°10' W 123°03'3347.2
2016-Apr-25 10:33N 46°11' W 123°51'33706.0
2016-Apr-25 10:31N 46°10' W 123°03'14344.2
2016-Apr-25 10:28N 46°12' W 123°23'14252.5
2016-Apr-25 10:25N 46°10' W 123°03'3338.9
2016-Apr-25 09:33N 46°11' W 123°51'20502.6
2016-Apr-25 09:31N 46°12' W 123°23'14257.7
2016-Apr-25 09:28N 46°10' W 123°03'0 0.1
2016-Apr-25 09:25N 46°10' W 123°03'3339.1
2016-Apr-25 08:33N 46°11' W 123°51'33706.0
2016-Apr-25 08:31N 46°10' W 123°03'14337.2
2016-Apr-25 08:28N 46°12' W 123°23'1490.4
2016-Apr-25 08:19N 46°10' W 123°03'3344.0
2016-Apr-25 07:33N 46°11' W 123°51'  
Track history (hours):
 
Tides and Currents Weather Stations Pressure Air Temp Water Temp Dewpoint Dewpoint Depression Visibility Wind Speed Wind Dir Waves Ship Positions

Zarling

Owner: Clean Rivers Co-op, Portland, OR. More information available from US FCC via Universal Licensing System.

Last reported at 2016-May-05 07:31 UTC. Time now 2016-May-05 08:32 UTC.
Position N 46°11' W 123°51'.

Length 12 m.

Type: Pollution control. MMSI: 3699126.

Date/timePositionNaut miles runAvg speedWind from/ knotsBaromVisibWave heightAir tempDewpointWater temp
2016-May-05 07:31N 46°11' W 123°51'33459.8
2016-May-05 07:27N 46°10' W 123°03'14425.8
2016-May-05 07:25N 46°12' W 123°23'14113.9
2016-May-05 07:18N 46°10' W 123°03'0 0.0
2016-May-05 06:33N 46°10' W 123°03'331132.2
2016-May-05 06:31N 46°11' W 123°51'331263.3
2016-May-05 06:30N 46°10' W 123°03'3334.3
2016-May-05 05:31N 46°11' W 123°51'336316.5
2016-May-05 05:31N 46°10' W 123°03'0 0.1
2016-May-05 05:27N 46°10' W 123°03'14497.5
2016-May-05 05:25N 46°12' W 123°23'1416.0
2016-May-05 04:33N 46°10' W 123°03'331363.8
2016-May-05 04:31N 46°11' W 123°51'204690.9
2016-May-05 04:31N 46°12' W 123°23'1469.9
2016-May-05 04:19N 46°10' W 123°03'3342.0
2016-May-05 03:31N 46°11' W 123°51'203909.1
2016-May-05 03:31N 46°12' W 123°23'14113.9
2016-May-05 03:24N 46°10' W 123°03'0 0.0
2016-May-05 02:33N 46°10' W 123°03'331481.6
2016-May-05 02:31N 46°11' W 123°51'203518.2
2016-May-05 02:31N 46°12' W 123°23'14276.1
2016-May-05 02:28N 46°10' W 123°03'3335.3
2016-May-05 01:31N 46°11' W 123°51'335714.9
2016-May-05 01:31N 46°10' W 123°03'0 0.0
2016-May-05 01:21N 46°10' W 123°03'3340.5
2016-May-05 00:31N 46°11' W 123°51'337059.6
2016-May-05 00:31N 46°10' W 123°03'0 0.3
2016-May-05 00:30N 46°10' W 123°03'0 0.0
2016-May-04 23:33N 46°10' W 123°03'331379.4
2016-May-04 23:31N 46°11' W 123°51'337059.6
2016-May-04 23:31N 46°10' W 123°03'3333.6
2016-May-04 22:32N 46°11' W 123°51'33588.3
2016-May-04 22:28N 46°10' W 123°03'0 0.0
2016-May-04 22:15N 46°10' W 123°03'0 0.0
2016-May-04 21:33N 46°10' W 123°03'331395.5
2016-May-04 21:31N 46°11' W 123°51'336316.5
2016-May-04 21:31N 46°10' W 123°03'3333.6
2016-May-04 20:32N 46°11' W 123°51'331224.6
2016-May-04 20:30N 46°10' W 123°03'0 0.1
2016-May-04 20:25N 46°10' W 123°03'14140.7
2016-May-04 20:19N 46°12' W 123°23'2024.6
2016-May-04 19:31N 46°11' W 123°51'203198.4
2016-May-04 19:31N 46°12' W 123°23'1450249.9
2016-May-04 19:31N 46°10' W 123°03'0 0.1
2016-May-04 19:18N 46°10' W 123°03'0 0.0
2016-May-04 18:33N 46°10' W 123°03'331445.9
2016-May-04 18:31N 46°11' W 123°51'203198.4
2016-May-04 18:31N 46°12' W 123°23'1469.7
2016-May-04 18:19N 46°10' W 123°03'0 0.0
2016-May-04 17:33N 46°10' W 123°03'331395.5
2016-May-04 17:31N 46°11' W 123°51'33588.3
2016-May-04 17:28N 46°10' W 123°03'1456.1
2016-May-04 17:13N 46°12' W 123°23'2028.1
2016-May-04 16:31N 46°11' W 123°51'331290.4
2016-May-04 16:30N 46°10' W 123°03'14176.3
2016-May-04 16:25N 46°12' W 123°23'14276.1
2016-May-04 16:22N 46°10' W 123°03'3339.5
2016-May-04 15:31N 46°11' W 123°51'203703.4
2016-May-04 15:31N 46°12' W 123°23'14139.2
2016-May-04 15:25N 46°10' W 123°03'0 0.1
2016-May-04 15:21N 46°10' W 123°03'0 0.0
2016-May-04 14:33N 46°10' W 123°03'331379.4
2016-May-04 14:31N 46°11' W 123°51'203198.4
2016-May-04 14:31N 46°12' W 123°23'14282.3
2016-May-04 14:28N 46°10' W 123°03'3335.3
2016-May-04 13:32N 46°11' W 123°51'331250.1
2016-May-04 13:30N 46°10' W 123°03'0 0.4
2016-May-04 13:28N 46°10' W 123°03'1455.8
2016-May-04 13:13N 46°12' W 123°23'1420.9
2016-May-04 12:33N 46°10' W 123°03'331363.8
2016-May-04 12:32N 46°11' W 123°51'203059.3
2016-May-04 12:31N 46°12' W 123°23'1416750.0
2016-May-04 12:31N 46°10' W 123°03'3333.6
2016-May-04 11:32N 46°11' W 123°51'202814.6
2016-May-04 11:31N 46°12' W 123°23'14688.3
2016-May-04 11:30N 46°10' W 123°03'0 0.0
2016-May-04 11:22N 46°10' W 123°03'3339.6
2016-May-04 10:32N 46°11' W 123°51'331200.1
2016-May-04 10:30N 46°10' W 123°03'0 0.2
2016-May-04 10:28N 46°10' W 123°03'14287.1
2016-May-04 10:25N 46°12' W 123°23'1416.0
2016-May-04 09:33N 46°10' W 123°03'331428.7
2016-May-04 09:32N 46°11' W 123°51'334138.4
2016-May-04 09:31N 46°10' W 123°03'0 0.0
2016-May-04 08:33N 46°10' W 123°03'331379.4
2016-May-04 08:32N 46°11' W 123°51'334286.2
2016-May-04 08:31N 46°10' W 123°03'1469.8
2016-May-04 08:19N 46°12' W 123°23'1418.2
2016-May-04 07:33N 46°10' W 123°03'331445.9
2016-May-04 07:32N 46°11' W 123°51'33566.1
2016-May-04 07:28N 46°10' W 123°03'0 0.0
2016-May-04 06:33N 46°10' W 123°03'331395.5
2016-May-04 06:32N 46°11' W 123°51'0 0.0
2016-May-04 05:32N 46°11' W 123°51'331290.4
2016-May-04 05:30N 46°10' W 123°03'0 0.0
2016-May-04 05:22N 46°10' W 123°03'3339.7
2016-May-04 04:32N 46°11' W 123°51'202513.0
2016-May-04 04:31N 46°12' W 123°23'14728.2
2016-May-04 04:30N 46°10' W 123°03'0 0.2
2016-May-04 04:28N 46°10' W 123°03'3335.4
2016-May-04 03:32N 46°11' W 123°51'202513.0
2016-May-04 03:31N 46°12' W 123°23'1410050.0
2016-May-04 03:31N 46°10' W 123°03'0 0.2
2016-May-04 03:27N 46°10' W 123°03'3336.1
2016-May-04 02:32N 46°11' W 123°51'202426.4
2016-May-04 02:31N 46°12' W 123°23'14773.0
2016-May-04 02:30N 46°10' W 123°03'0 0.0
2016-May-04 02:22N 46°10' W 123°03'3339.6
2016-May-04 01:32N 46°11' W 123°51'334000.4
2016-May-04 01:31N 46°10' W 123°03'0 0.3
2016-May-04 01:30N 46°10' W 123°03'1436.6
2016-May-04 01:07N 46°12' W 123°23'2033.0
2016-May-04 00:32N 46°11' W 123°51'33563.4
2016-May-04 00:28N 46°10' W 123°03'0 0.2
2016-May-04 00:24N 46°10' W 123°03'3338.2
2016-May-03 23:32N 46°11' W 123°51'202069.5
2016-May-03 23:31N 46°12' W 123°23'1410049.3
2016-May-03 23:31N 46°10' W 123°03'0 0.4
2016-May-03 23:30N 46°10' W 123°03'3334.2
2016-May-03 22:32N 46°11' W 123°51'202132.2
2016-May-03 22:31N 46°12' W 123°23'14810.4
2016-May-03 22:30N 46°10' W 123°03'0 0.2
2016-May-03 22:28N 46°10' W 123°03'3335.4
2016-May-03 21:32N 46°11' W 123°51'202345.5
2016-May-03 21:31N 46°12' W 123°23'14773.0
2016-May-03 21:30N 46°10' W 123°03'0 0.1
2016-May-03 21:19N 46°10' W 123°03'3342.3
2016-May-03 20:32N 46°11' W 123°51'33301.5
2016-May-03 20:25N 46°10' W 123°03'0 0.1
2016-May-03 20:12N 46°10' W 123°03'3349.6
2016-May-03 19:32N 46°11' W 123°51'202132.2
2016-May-03 19:31N 46°12' W 123°23'14837.4
2016-May-03 19:30N 46°10' W 123°03'0 0.0
2016-May-03 19:19N 46°10' W 123°03'0 0.0
2016-May-03 18:33N 46°10' W 123°03'331411.9
2016-May-03 18:32N 46°11' W 123°51'33555.6
2016-May-03 18:28N 46°10' W 123°03'1493.9
2016-May-03 18:19N 46°12' W 123°23'2024.7
2016-May-03 17:32N 46°11' W 123°51'202132.2
2016-May-03 17:31N 46°12' W 123°23'1493.1
2016-May-03 17:22N 46°10' W 123°03'0 0.2
2016-May-03 17:18N 46°10' W 123°03'3343.1
2016-May-03 16:32N 46°11' W 123°51'333158.2
2016-May-03 16:31N 46°10' W 123°03'0 0.4
2016-May-03 16:30N 46°10' W 123°03'14415.2
2016-May-03 16:28N 46°12' W 123°23'1415.2
2016-May-03 15:33N 46°10' W 123°03'331481.6
2016-May-03 15:32N 46°11' W 123°51'333077.2
2016-May-03 15:31N 46°10' W 123°03'1446.5
2016-May-03 15:13N 46°12' W 123°23'1421.0
2016-May-03 14:33N 46°10' W 123°03'331463.5
2016-May-03 14:32N 46°11' W 123°51'201901.7
2016-May-03 14:31N 46°12' W 123°23'14277.6
2016-May-03 14:28N 46°10' W 123°03'3335.5
2016-May-03 13:32N 46°11' W 123°51'201901.7
2016-May-03 13:31N 46°12' W 123°23'1412561.6
2016-May-03 13:31N 46°10' W 123°03'0 0.1
2016-May-03 13:24N 46°10' W 123°03'0 0.0
2016-May-03 12:33N 46°10' W 123°03'331411.9
2016-May-03 12:32N 46°11' W 123°51'202069.6
2016-May-03 12:31N 46°12' W 123°23'14138.4
2016-May-03 12:25N 46°10' W 123°03'0 0.0
2016-May-03 11:33N 46°10' W 123°03'331481.6
2016-May-03 11:32N 46°11' W 123°51'20177.2
2016-May-03 11:25N 46°12' W 123°23'14274.6
2016-May-03 11:22N 46°10' W 123°03'3339.7
2016-May-03 10:32N 46°11' W 123°51'333333.7
2016-May-03 10:31N 46°10' W 123°03'0 0.1
2016-May-03 10:27N 46°10' W 123°03'3336.1
2016-May-03 09:32N 46°11' W 123°51'201901.7
2016-May-03 09:31N 46°12' W 123°23'14138.8
2016-May-03 09:25N 46°10' W 123°03'0 0.4
2016-May-03 09:24N 46°10' W 123°03'3338.2
2016-May-03 08:32N 46°11' W 123°51'333077.2
2016-May-03 08:31N 46°10' W 123°03'14282.3
2016-May-03 08:28N 46°12' W 123°23'14897.2
2016-May-03 08:27N 46°10' W 123°03'0 0.0
2016-May-03 07:33N 46°10' W 123°03'14405.2
2016-May-03 07:31N 46°12' W 123°23'20517.4
2016-May-03 07:29N 46°11' W 123°51'33296.3
2016-May-03 07:22N 46°10' W 123°03'3339.8
2016-May-03 06:32N 46°11' W 123°51'332666.9
2016-May-03 06:31N 46°10' W 123°03'0 0.4
2016-May-03 06:30N 46°10' W 123°03'14411.8
2016-May-03 06:28N 46°12' W 123°23'2020.8
2016-May-03 05:32N 46°11' W 123°51'33207.3
2016-May-03 05:22N 46°10' W 123°03'1425123.3
2016-May-03 05:22N 46°12' W 123°23'14985.2
2016-May-03 05:21N 46°10' W 123°03'3340.5
2016-May-03 04:32N 46°11' W 123°51'201716.2
2016-May-03 04:31N 46°12' W 123°23'14138.4
2016-May-03 04:25N 46°10' W 123°03'3337.6
2016-May-03 03:32N 46°11' W 123°51'33156.7
2016-May-03 03:19N 46°10' W 123°03'14140.7
2016-May-03 03:13N 46°12' W 123°23'14930.4
2016-May-03 03:12N 46°10' W 123°03'0 0.0
2016-May-03 02:33N 46°10' W 123°03'331481.6
2016-May-03 02:32N 46°11' W 123°51'33297.8
2016-May-03 02:25N 46°10' W 123°03'14138.0
2016-May-03 02:19N 46°12' W 123°23'2024.8
2016-May-03 01:32N 46°11' W 123°51'332857.4
2016-May-03 01:31N 46°10' W 123°03'0 0.1
2016-May-03 01:24N 46°10' W 123°03'14164.2
2016-May-03 01:19N 46°12' W 123°23'2024.8
2016-May-03 00:32N 46°11' W 123°51'201529.6
2016-May-03 00:31N 46°12' W 123°23'14276.1
2016-May-03 00:28N 46°10' W 123°03'0 0.0
2016-May-03 00:18N 46°10' W 123°03'0 0.0
2016-May-02 23:33N 46°10' W 123°03'332727.6
2016-May-02 23:32N 46°11' W 123°51'33263.2
2016-May-02 23:24N 46°10' W 123°03'3338.1
2016-May-02 22:32N 46°11' W 123°51'33177.8
2016-May-02 22:21N 46°10' W 123°03'0 0.3
2016-May-02 22:18N 46°10' W 123°03'1475.0
2016-May-02 22:07N 46°12' W 123°23'1424.3
2016-May-02 21:33N 46°10' W 123°03'332667.0
2016-May-02 21:32N 46°11' W 123°51'33262.6
2016-May-02 21:24N 46°10' W 123°03'1448.9
2016-May-02 21:07N 46°12' W 123°23'2033.3
2016-May-02 20:32N 46°11' W 123°51'201563.6
2016-May-02 20:31N 46°12' W 123°23'14628.0
2016-May-02 20:30N 46°10' W 123°03'0 0.0
2016-May-02 20:21N 46°10' W 123°03'0 0.0
2016-May-02 19:33N 46°10' W 123°03'332791.0
2016-May-02 19:32N 46°11' W 123°51'33952.5
2016-May-02 19:30N 46°10' W 123°03'14178.2
2016-May-02 19:25N 46°12' W 123°23'1416.0
2016-May-02 18:33N 46°10' W 123°03'332791.0
2016-May-02 18:32N 46°11' W 123°51'201465.9
2016-May-02 18:31N 46°12' W 123°23'141092.2
2016-May-02 18:30N 46°10' W 123°03'0 0.0
2016-May-02 17:33N 46°10' W 123°03'33535.8
2016-May-02 17:29N 46°11' W 123°51'33952.5
2016-May-02 17:27N 46°10' W 123°03'14492.6
2016-May-02 17:25N 46°12' W 123°23'1416.0
2016-May-02 16:33N 46°10' W 123°03'332857.5
2016-May-02 16:32N 46°11' W 123°51'201529.6
2016-May-02 16:31N 46°12' W 123°23'14219.4
2016-May-02 16:27N 46°10' W 123°03'3336.1
2016-May-02 15:32N 46°11' W 123°51'331237.2
2016-May-02 15:30N 46°10' W 123°03'0 0.1
2016-May-02 15:24N 46°10' W 123°03'14184.7
2016-May-02 15:19N 46°12' W 123°23'2024.9
2016-May-02 14:32N 46°11' W 123°51'331250.1
2016-May-02 14:30N 46°10' W 123°03'1448.8
2016-May-02 14:13N 46°12' W 123°23'14184.7
2016-May-02 14:09N 46°10' W 123°03'0 0.0
2016-May-02 13:33N 46°10' W 123°03'333000.3
2016-May-02 13:32N 46°11' W 123°51'201379.7
2016-May-02 13:31N 46°12' W 123°23'14115.5
2016-May-02 13:24N 46°10' W 123°03'3338.5
2016-May-02 12:32N 46°11' W 123°51'33392.2
2016-May-02 12:27N 46°10' W 123°03'14108.8
2016-May-02 12:19N 46°12' W 123°23'14111.7
2016-May-02 12:12N 46°10' W 123°03'3350.4
2016-May-02 11:32N 46°11' W 123°51'201407.3
2016-May-02 11:31N 46°12' W 123°23'14197.8
2016-May-02 11:27N 46°10' W 123°03'0 0.0
2016-May-02 10:33N 46°10' W 123°03'332791.0
2016-May-02 10:32N 46°11' W 123°51'201379.7
2016-May-02 10:31N 46°12' W 123°23'14198.6
2016-May-02 10:27N 46°10' W 123°03'0 0.0
2016-May-02 09:33N 46°10' W 123°03'0 1.5
2016-May-02 09:33N 46°10' W 123°03'333333.7
2016-May-02 09:32N 46°11' W 123°51'20170.0
2016-May-02 09:25N 46°12' W 123°23'2022.1
2016-May-02 08:32N 46°11' W 123°51'201436.0
2016-May-02 08:31N 46°12' W 123°23'14540.3
2016-May-02 08:30N 46°10' W 123°03'0 0.1
2016-May-02 08:27N 46°10' W 123°03'0 0.0
2016-May-02 07:33N 46°10' W 123°03'0 1.4
2016-May-02 07:33N 46°10' W 123°03'333428.9
2016-May-02 07:32N 46°11' W 123°51'201303.0
2016-May-02 07:31N 46°12' W 123°23'1414.4
2016-May-02 06:33N 46°10' W 123°03'0 1.4
2016-May-02 06:33N 46°10' W 123°03'333333.7
2016-May-02 06:32N 46°11' W 123°51'20170.0
2016-May-02 06:25N 46°12' W 123°23'0 0.0
2016-May-02 05:31N 46°12' W 123°23'14717.8
2016-May-02 05:30N 46°10' W 123°03'0 1.1
2016-May-02 05:30N 46°10' W 123°03'333428.9
2016-May-02 05:29N 46°11' W 123°51'3335.7
2016-May-02 04:33N 46°10' W 123°03'0 1.2
2016-May-02 04:33N 46°10' W 123°03'333333.7
2016-May-02 04:32N 46°11' W 123°51'201279.3
2016-May-02 04:31N 46°12' W 123°23'1414.4
2016-May-02 03:33N 46°10' W 123°03'332449.2
2016-May-02 03:32N 46°11' W 123°51'201234.5
2016-May-02 03:31N 46°12' W 123°23'14558.3
2016-May-02 03:30N 46°10' W 123°03'0 0.0
2016-May-02 02:33N 46°10' W 123°03'333428.9
2016-May-02 02:32N 46°11' W 123°51'33952.5
2016-May-02 02:30N 46°10' W 123°03'14174.5
2016-May-02 02:25N 46°12' W 123°23'1416.0
2016-May-02 01:33N 46°10' W 123°03'0 1.2
2016-May-02 01:33N 46°10' W 123°03'333636.7
2016-May-02 01:32N 46°11' W 123°51'201256.5
2016-May-02 01:31N 46°12' W 123°23'1414.3
2016-May-02 00:33N 46°10' W 123°03'333636.7
2016-May-02 00:32N 46°11' W 123°51'33390.9
2016-May-02 00:27N 46°10' W 123°03'0 0.0
2016-May-01 23:33N 46°10' W 123°03'0 1.1
2016-May-01 23:33N 46°10' W 123°03'333750.4
2016-May-01 23:32N 46°11' W 123°51'3333.6
2016-May-01 22:33N 46°10' W 123°03'334138.4
2016-May-01 22:32N 46°11' W 123°51'201172.7
2016-May-01 22:31N 46°12' W 123°23'14117.4
2016-May-01 22:24N 46°10' W 123°03'0 0.0
2016-May-01 21:33N 46°10' W 123°03'333529.8
2016-May-01 21:32N 46°11' W 123°51'33975.7
2016-May-01 21:30N 46°10' W 123°03'3334.5
2016-May-01 20:32N 46°11' W 123°51'201256.5
2016-May-01 20:31N 46°12' W 123°23'14738.9
2016-May-01 20:30N 46°10' W 123°03'0 0.0
2016-May-01 20:18N 46°10' W 123°03'0 0.0
2016-May-01 19:33N 46°10' W 123°03'334000.4
2016-May-01 19:32N 46°11' W 123°51'33181.0
2016-May-01 19:21N 46°10' W 123°03'1460.2
2016-May-01 19:07N 46°12' W 123°23'2033.5
2016-May-01 18:32N 46°11' W 123°51'33364.8
2016-May-01 18:27N 46°10' W 123°03'0 0.4
2016-May-01 18:24N 46°10' W 123°03'1477.1
2016-May-01 18:13N 46°12' W 123°23'1420.7
2016-May-01 17:33N 46°10' W 123°03'333750.4
2016-May-01 17:32N 46°11' W 123°51'33247.4
2016-May-01 17:24N 46°10' W 123°03'14172.1
2016-May-01 17:19N 46°12' W 123°23'1418.0
2016-May-01 16:33N 46°10' W 123°03'334138.4
2016-May-01 16:32N 46°11' W 123°51'33952.5
2016-May-01 16:30N 46°10' W 123°03'14172.1
2016-May-01 16:25N 46°12' W 123°23'1415.9
2016-May-01 15:33N 46°10' W 123°03'334138.4
2016-May-01 15:32N 46°11' W 123°51'2090.4
2016-May-01 15:19N 46°12' W 123°23'2025.0
2016-May-01 14:32N 46°11' W 123°51'33937.6
2016-May-01 14:30N 46°10' W 123°03'0 0.2
2016-May-01 14:27N 46°10' W 123°03'14571.0
2016-May-01 14:25N 46°12' W 123°23'1416.1
2016-May-01 13:33N 46°10' W 123°03'0 0.7
2016-May-01 13:33N 46°10' W 123°03'334800.5
2016-May-01 13:32N 46°11' W 123°51'201099.4
2016-May-01 13:31N 46°12' W 123°23'1414.3
2016-May-01 12:33N 46°10' W 123°03'334286.1
2016-May-01 12:32N 46°11' W 123°51'201153.5
2016-May-01 12:31N 46°12' W 123°23'14785.0
2016-May-01 12:30N 46°10' W 123°03'0 0.0
2016-May-01 11:33N 46°10' W 123°03'0 1.5
2016-May-01 11:33N 46°10' W 123°03'334444.9
2016-May-01 11:32N 46°11' W 123°51'0 0.0
2016-May-01 10:32N 46°11' W 123°51'331875.2
2016-May-01 10:31N 46°10' W 123°03'0 0.1
2016-May-01 10:27N 46°10' W 123°03'14436.9
2016-May-01 10:25N 46°12' W 123°23'2022.1
2016-May-01 09:32N 46°11' W 123°51'20167.5
2016-May-01 09:25N 46°12' W 123°23'1450246.6
2016-May-01 09:25N 46°10' W 123°03'0 0.1
2016-May-01 09:21N 46°10' W 123°03'3340.9
2016-May-01 08:32N 46°11' W 123°51'331739.3
2016-May-01 08:31N 46°10' W 123°03'0 0.4
2016-May-01 08:30N 46°10' W 123°03'14418.7
2016-May-01 08:28N 46°12' W 123°23'2021.0
2016-May-01 07:32N 46°11' W 123°51'331791.2
2016-May-01 07:31N 46°10' W 123°03'14277.6
2016-May-01 07:28N 46°12' W 123°23'1484.9
2016-May-01 07:18N 46°10' W 123°03'3341.9
2016-May-01 06:31N 46°11' W 123°51'2098.5
2016-May-01 06:19N 46°12' W 123°23'1473.8
2016-May-01 06:07N 46°10' W 123°03'3357.1
2016-May-01 05:32N 46°11' W 123°51'201082.5
2016-May-01 05:31N 46°12' W 123°23'1416748.9
2016-May-01 05:31N 46°10' W 123°03'0 0.0
2016-May-01 04:33N 46°10' W 123°03'332222.4
2016-May-01 04:32N 46°11' W 123°51'0 0.0
2016-May-01 03:32N 46°11' W 123°51'33392.2
2016-May-01 03:27N 46°10' W 123°03'0 0.1
2016-May-01 03:22N 46°10' W 123°03'14280.7
2016-May-01 03:19N 46°12' W 123°23'1418.2
2016-May-01 02:33N 46°10' W 123°03'332182.0
2016-May-01 02:32N 46°11' W 123°51'33197.4
2016-May-01 02:22N 46°10' W 123°03'3340.1
2016-May-01 01:32N 46°11' W 123°51'331818.4
2016-May-01 01:31N 46°10' W 123°03'0 0.1
2016-May-01 01:27N 46°10' W 123°03'14422.2
2016-May-01 01:25N 46°12' W 123°23'1416.1
2016-May-01 00:33N 46°10' W 123°03'332307.9
2016-May-01 00:32N 46°11' W 123°51'33104.4
2016-May-01 00:13N 46°10' W 123°03'14139.2
2016-May-01 00:07N 46°12' W 123°23'1424.7
2016-Apr-30 23:33N 46°10' W 123°03'332182.0
2016-Apr-30 23:32N 46°11' W 123°51'331739.3
2016-Apr-30 23:31N 46°10' W 123°03'1470.0
2016-Apr-30 23:19N 46°12' W 123°23'2025.1
2016-Apr-30 22:32N 46°11' W 123°51'20977.3
2016-Apr-30 22:31N 46°12' W 123°23'14897.2
2016-Apr-30 22:30N 46°10' W 123°03'0 0.1
2016-Apr-30 22:25N 46°10' W 123°03'3337.9
2016-Apr-30 21:32N 46°11' W 123°51'33945.0
2016-Apr-30 21:30N 46°10' W 123°03'0 0.3
2016-Apr-30 21:28N 46°10' W 123°03'14283.9
2016-Apr-30 21:25N 46°12' W 123°23'2022.2
2016-Apr-30 20:32N 46°11' W 123°51'331690.3
2016-Apr-30 20:31N 46°10' W 123°03'0 0.0
2016-Apr-30 20:21N 46°10' W 123°03'14389.5
2016-Apr-30 20:19N 46°12' W 123°23'2025.1
2016-Apr-30 19:32N 46°11' W 123°51'33470.6
2016-Apr-30 19:28N 46°10' W 123°03'0 0.4
2016-Apr-30 19:27N 46°10' W 123°03'14405.2
2016-Apr-30 19:25N 46°12' W 123°23'1416.1
2016-Apr-30 18:33N 46°10' W 123°03'332143.1
2016-Apr-30 18:32N 46°11' W 123°51'20991.0
2016-Apr-30 18:31N 46°12' W 123°23'14140.0
2016-Apr-30 18:25N 46°10' W 123°03'0 0.0
2016-Apr-30 17:33N 46°10' W 123°03'332307.9
2016-Apr-30 17:32N 46°11' W 123°51'20977.3
2016-Apr-30 17:31N 46°12' W 123°23'1416748.9
2016-Apr-30 17:31N 46°10' W 123°03'0 0.0
2016-Apr-30 16:33N 46°10' W 123°03'332105.5
2016-Apr-30 16:32N 46°11' W 123°51'331666.8
2016-Apr-30 16:31N 46°10' W 123°03'14138.8
2016-Apr-30 16:25N 46°12' W 123°23'2022.2
2016-Apr-30 15:32N 46°11' W 123°51'20950.9
2016-Apr-30 15:31N 46°12' W 123°23'14140.0
2016-Apr-30 15:25N 46°10' W 123°03'0 0.4
2016-Apr-30 15:24N 46°10' W 123°03'0 0.0
2016-Apr-30 14:33N 46°10' W 123°03'332307.9
2016-Apr-30 14:32N 46°11' W 123°51'331558.6
2016-Apr-30 14:31N 46°10' W 123°03'14141.1
2016-Apr-30 14:25N 46°12' W 123°23'2022.2
2016-Apr-30 13:32N 46°11' W 123°51'33151.1
2016-Apr-30 13:19N 46°10' W 123°03'0 0.1
2016-Apr-30 13:12N 46°10' W 123°03'14163.1
2016-Apr-30 13:07N 46°12' W 123°23'1424.7
2016-Apr-30 12:33N 46°10' W 123°03'332222.4
2016-Apr-30 12:32N 46°11' W 123°51'20162.5
2016-Apr-30 12:25N 46°12' W 123°23'1416749.9
2016-Apr-30 12:25N 46°10' W 123°03'3338.0
2016-Apr-30 11:32N 46°11' W 123°51'20879.5
2016-Apr-30 11:31N 46°12' W 123°23'141046.7
2016-Apr-30 11:30N 46°10' W 123°03'0 0.1
2016-Apr-30 11:25N 46°10' W 123°03'0 0.0
2016-Apr-30 10:33N 46°10' W 123°03'0 0.6
2016-Apr-30 10:33N 46°10' W 123°03'3310001.0
2016-Apr-30 10:32N 46°11' W 123°51'20858.1
2016-Apr-30 10:31N 46°12' W 123°23'2019.0
2016-Apr-30 09:29N 46°11' W 123°51'33945.0
2016-Apr-30 09:27N 46°10' W 123°03'14392.5
2016-Apr-30 09:25N 46°12' W 123°23'147178.6
2016-Apr-30 09:25N 46°10' W 123°03'3338.0
2016-Apr-30 08:32N 46°11' W 123°51'20925.8
2016-Apr-30 08:31N 46°12' W 123°23'141004.9
2016-Apr-30 08:30N 46°10' W 123°03'0 0.0
2016-Apr-30 08:22N 46°10' W 123°03'3340.3
2016-Apr-30 07:32N 46°11' W 123°51'331500.2
2016-Apr-30 07:31N 46°10' W 123°03'0 0.1
2016-Apr-30 07:27N 46°10' W 123°03'14377.8
2016-Apr-30 07:25N 46°12' W 123°23'2022.3
2016-Apr-30 06:32N 46°11' W 123°51'20913.8
2016-Apr-30 06:31N 46°12' W 123°23'1485.2
2016-Apr-30 06:21N 46°10' W 123°03'0 0.0
2016-Apr-30 06:13N 46°10' W 123°03'1419.9
2016-Apr-30 05:31N 46°12' W 123°23'20733.0
2016-Apr-30 05:30N 46°11' W 123°51'33923.2
2016-Apr-30 05:27N 46°10' W 123°03'0 0.1
2016-Apr-30 05:16N 46°10' W 123°03'0 0.0
2016-Apr-30 04:33N 46°10' W 123°03'332143.1
2016-Apr-30 04:32N 46°11' W 123°51'20890.7
2016-Apr-30 04:31N 46°12' W 123°23'14276.1
2016-Apr-30 04:28N 46°10' W 123°03'0 0.0
2016-Apr-30 03:33N 46°10' W 123°03'332353.2
2016-Apr-30 03:33N 46°11' W 123°51'33451.2
2016-Apr-30 03:28N 46°10' W 123°03'14283.9
2016-Apr-30 03:25N 46°12' W 123°23'1416.2
2016-Apr-30 02:33N 46°10' W 123°03'332222.4
2016-Apr-30 02:33N 46°11' W 123°51'331519.2
2016-Apr-30 02:31N 46°10' W 123°03'1469.2
2016-Apr-30 02:19N 46°12' W 123°23'1418.3
2016-Apr-30 01:33N 46°10' W 123°03'14366.7
2016-Apr-30 01:31N 46°12' W 123°23'20748.6
2016-Apr-30 01:30N 46°11' W 123°51'331411.9
2016-Apr-30 01:28N 46°10' W 123°03'3336.0
2016-Apr-30 00:32N 46°11' W 123°51'331445.9
2016-Apr-30 00:31N 46°10' W 123°03'0 1.0
2016-Apr-30 00:30N 46°10' W 123°03'14159.0
2016-Apr-30 00:25N 46°12' W 123°23'2022.3
2016-Apr-29 23:33N 46°11' W 123°51'331379.5
2016-Apr-29 23:31N 46°10' W 123°03'0 0.6
2016-Apr-29 23:30N 46°10' W 123°03'14158.5
2016-Apr-29 23:25N 46°12' W 123°23'2022.3
2016-Apr-29 22:33N 46°11' W 123°51'331237.2
2016-Apr-29 22:31N 46°10' W 123°03'0 0.1
2016-Apr-29 22:28N 46°10' W 123°03'14282.3
2016-Apr-29 22:25N 46°12' W 123°23'1416.2
2016-Apr-29 21:33N 46°10' W 123°03'332222.4
2016-Apr-29 21:33N 46°11' W 123°51'331379.5
2016-Apr-29 21:31N 46°10' W 123°03'14140.8
2016-Apr-29 21:25N 46°12' W 123°23'1416.2
2016-Apr-29 20:33N 46°10' W 123°03'332143.1
2016-Apr-29 20:33N 46°11' W 123°51'33452.9
2016-Apr-29 20:28N 46°10' W 123°03'1493.4
2016-Apr-29 20:19N 46°12' W 123°23'1418.3
2016-Apr-29 19:33N 46°10' W 123°03'332264.4
2016-Apr-29 19:33N 46°11' W 123°51'20818.2
2016-Apr-29 19:31N 46°12' W 123°23'14277.6
2016-Apr-29 19:28N 46°10' W 123°03'0 0.0
2016-Apr-29 18:33N 46°10' W 123°03'332400.2
2016-Apr-29 18:33N 46°11' W 123°51'20781.8
2016-Apr-29 18:31N 46°12' W 123°23'14274.6
2016-Apr-29 18:28N 46°10' W 123°03'3336.1
2016-Apr-29 17:33N 46°11' W 123°51'20756.6
2016-Apr-29 17:31N 46°12' W 123°23'1487.1
2016-Apr-29 17:21N 46°10' W 123°03'0 0.0
2016-Apr-29 16:33N 46°10' W 123°03'332182.0
2016-Apr-29 16:33N 46°11' W 123°51'331411.9
2016-Apr-29 16:31N 46°10' W 123°03'1446.5
2016-Apr-29 16:13N 46°12' W 123°23'2028.9
2016-Apr-29 15:33N 46°11' W 123°51'33190.8
2016-Apr-29 15:22N 46°10' W 123°03'3340.4
2016-Apr-29 14:33N 46°11' W 123°51'331395.5
2016-Apr-29 14:31N 46°10' W 123°03'0 0.1
2016-Apr-29 14:27N 46°10' W 123°03'1458.2
2016-Apr-29 14:13N 46°12' W 123°23'1421.1
2016-Apr-29 13:33N 46°10' W 123°03'332182.0
2016-Apr-29 13:33N 46°11' W 123°51'33446.1
2016-Apr-29 13:28N 46°10' W 123°03'1493.7
2016-Apr-29 13:19N 46°12' W 123°23'2025.2
2016-Apr-29 12:33N 46°11' W 123°51'33148.2
2016-Apr-29 12:19N 46°10' W 123°03'0 3.6
2016-Apr-29 12:19N 46°10' W 123°03'3343.1
2016-Apr-29 11:33N 46°11' W 123°51'20773.2
2016-Apr-29 11:31N 46°12' W 123°23'148373.9
2016-Apr-29 11:31N 46°10' W 123°03'0 0.1
2016-Apr-29 11:28N 46°10' W 123°03'3336.1
2016-Apr-29 10:33N 46°11' W 123°51'331263.3
2016-Apr-29 10:31N 46°10' W 123°03'0 0.1
2016-Apr-29 10:28N 46°10' W 123°03'14279.1
2016-Apr-29 10:25N 46°12' W 123°23'2022.4
2016-Apr-29 09:33N 46°11' W 123°51'20773.2
2016-Apr-29 09:31N 46°12' W 123°23'14276.1
2016-Apr-29 09:28N 46°10' W 123°03'0 0.0
2016-Apr-29 09:13N 46°10' W 123°03'3349.5
2016-Apr-29 08:33N 46°11' W 123°51'331318.8
2016-Apr-29 08:31N 46°10' W 123°03'0 0.1
2016-Apr-29 08:28N 46°10' W 123°03'14290.4
2016-Apr-29 08:25N 46°12' W 123°23'2022.3
2016-Apr-29 07:33N 46°11' W 123°51'20773.2
2016-Apr-29 07:31N 46°12' W 123°23'141674.8
2016-Apr-29 07:31N 46°10' W 123°03'0 0.1
2016-Apr-29 07:28N 46°10' W 123°03'3336.0
2016-Apr-29 06:33N 46°11' W 123°51'20790.6
2016-Apr-29 06:31N 46°12' W 123°23'1416748.9
2016-Apr-29 06:31N 46°10' W 123°03'0 0.1
2016-Apr-29 06:28N 46°10' W 123°03'3336.4
2016-Apr-29 05:33N 46°11' W 123°51'331276.7
2016-Apr-29 05:31N 46°10' W 123°03'0 0.1
2016-Apr-29 05:28N 46°10' W 123°03'14344.1
2016-Apr-29 05:25N 46°12' W 123°23'2022.4
2016-Apr-29 04:33N 46°11' W 123°51'33392.2
2016-Apr-29 04:28N 46°10' W 123°03'0 0.1
2016-Apr-29 04:22N 46°10' W 123°03'14287.1
2016-Apr-29 04:19N 46°12' W 123°23'2025.2
2016-Apr-29 03:33N 46°11' W 123°51'20756.6
2016-Apr-29 03:31N 46°12' W 123°23'14235.9
2016-Apr-29 03:28N 46°10' W 123°03'0 0.0
2016-Apr-29 03:13N 46°10' W 123°03'0 0.0
2016-Apr-29 02:33N 46°10' W 123°03'331445.9
2016-Apr-29 02:32N 46°11' W 123°51'33286.4
2016-Apr-29 02:25N 46°10' W 123°03'14185.4
2016-Apr-29 02:20N 46°12' W 123°23'2024.7
2016-Apr-29 01:33N 46°11' W 123°51'20689.8
2016-Apr-29 01:31N 46°12' W 123°23'14279.2
2016-Apr-29 01:28N 46°10' W 123°03'0 0.1
2016-Apr-29 01:22N 46°10' W 123°03'3340.9
2016-Apr-29 00:33N 46°11' W 123°51'33393.5
2016-Apr-29 00:28N 46°10' W 123°03'0 0.1
2016-Apr-29 00:25N 46°10' W 123°03'14140.4
2016-Apr-29 00:19N 46°12' W 123°23'0 0.0
2016-Apr-28 23:31N 46°12' W 123°23'1425123.3
2016-Apr-28 23:31N 46°10' W 123°03'33463.4
2016-Apr-28 23:27N 46°11' W 123°51'33389.6
2016-Apr-28 23:22N 46°10' W 123°03'3340.9
2016-Apr-28 22:33N 46°11' W 123°51'33434.8
2016-Apr-28 22:28N 46°10' W 123°03'14280.7
2016-Apr-28 22:25N 46°12' W 123°23'14240.4
2016-Apr-28 22:22N 46°10' W 123°03'3340.9
2016-Apr-28 21:33N 46°11' W 123°51'20718.0
2016-Apr-28 21:31N 46°12' W 123°23'14274.6
2016-Apr-28 21:28N 46°10' W 123°03'0 0.9
2016-Apr-28 21:28N 46°10' W 123°03'3336.4
2016-Apr-28 20:33N 46°11' W 123°51'20725.4
2016-Apr-28 20:31N 46°12' W 123°23'14276.1
2016-Apr-28 20:28N 46°10' W 123°03'0 0.0
2016-Apr-28 20:19N 46°10' W 123°03'3343.6
2016-Apr-28 19:33N 46°11' W 123°51'331250.1
2016-Apr-28 19:31N 46°10' W 123°03'0 0.1
2016-Apr-28 19:28N 46°10' W 123°03'14328.4
2016-Apr-28 19:25N 46°12' W 123°23'2022.4
2016-Apr-28 18:33N 46°11' W 123°51'33930.3
2016-Apr-28 18:31N 46°10' W 123°03'0 0.1
2016-Apr-28 18:25N 46°10' W 123°03'1410049.3
2016-Apr-28 18:25N 46°12' W 123°23'2022.4
2016-Apr-28 17:33N 46°11' W 123°51'20718.0
2016-Apr-28 17:31N 46°12' W 123°23'14273.1
2016-Apr-28 17:28N 46°10' W 123°03'0 0.0
2016-Apr-28 17:13N 46°10' W 123°03'3350.1
2016-Apr-28 16:33N 46°11' W 123°51'33431.7
2016-Apr-28 16:28N 46°10' W 123°03'0 0.1
2016-Apr-28 16:22N 46°10' W 123°03'14324.1
2016-Apr-28 16:19N 46°12' W 123°23'2025.3
2016-Apr-28 15:33N 46°11' W 123°51'331200.1
2016-Apr-28 15:31N 46°10' W 123°03'0 0.1
2016-Apr-28 15:28N 46°10' W 123°03'1457.6
2016-Apr-28 15:13N 46°12' W 123°23'2029.1
2016-Apr-28 14:33N 46°11' W 123°51'20153.6
2016-Apr-28 14:25N 46°12' W 123°23'141860.9
2016-Apr-28 14:25N 46°10' W 123°03'0 0.1
2016-Apr-28 14:22N 46°10' W 123°03'3340.6
2016-Apr-28 13:33N 46°11' W 123°51'20703.6
2016-Apr-28 13:31N 46°12' W 123°23'1492.0
2016-Apr-28 13:22N 46°10' W 123°03'3340.6
2016-Apr-28 12:33N 46°11' W 123°51'33419.6
2016-Apr-28 12:28N 46°10' W 123°03'0 2.2
2016-Apr-28 12:28N 46°10' W 123°03'14320.0
2016-Apr-28 12:25N 46°12' W 123°23'2022.4
2016-Apr-28 11:33N 46°11' W 123°51'331143.0
2016-Apr-28 11:31N 46°10' W 123°03'0 0.1
2016-Apr-28 11:28N 46°10' W 123°03'3336.4
2016-Apr-28 10:33N 46°11' W 123°51'20676.6
2016-Apr-28 10:31N 46°12' W 123°23'142392.5
2016-Apr-28 10:31N 46°10' W 123°03'0 0.0
2016-Apr-28 10:22N 46°10' W 123°03'3340.6
2016-Apr-28 09:33N 46°11' W 123°51'20689.8
2016-Apr-28 09:31N 46°12' W 123°23'142184.5
2016-Apr-28 09:31N 46°10' W 123°03'0 0.0
2016-Apr-28 09:22N 46°10' W 123°03'3340.6
2016-Apr-28 08:33N 46°11' W 123°51'20676.6
2016-Apr-28 08:31N 46°12' W 123°23'14273.1
2016-Apr-28 08:28N 46°10' W 123°03'0 0.1
2016-Apr-28 08:22N 46°10' W 123°03'3340.9
2016-Apr-28 07:33N 46°11' W 123°51'20683.1
2016-Apr-28 07:31N 46°12' W 123°23'142184.5
2016-Apr-28 07:31N 46°10' W 123°03'0 0.0
2016-Apr-28 07:22N 46°10' W 123°03'3340.5
2016-Apr-28 06:33N 46°11' W 123°51'20696.7
2016-Apr-28 06:31N 46°12' W 123°23'1416748.9
2016-Apr-28 06:31N 46°10' W 123°03'0 1.0
2016-Apr-28 06:31N 46°10' W 123°03'3334.6
2016-Apr-28 05:33N 46°11' W 123°51'20663.8
2016-Apr-28 05:31N 46°12' W 123°23'14280.7
2016-Apr-28 05:28N 46°10' W 123°03'0 0.0
2016-Apr-28 05:18N 46°10' W 123°03'3344.1
2016-Apr-28 04:33N 46°11' W 123°51'20676.6
2016-Apr-28 04:31N 46°12' W 123°23'14966.2
2016-Apr-28 04:30N 46°10' W 123°03'0 0.0
2016-Apr-28 04:22N 46°10' W 123°03'0 0.0
2016-Apr-28 03:33N 46°10' W 123°03'335000.5
2016-Apr-28 03:33N 46°11' W 123°51'33412.4
2016-Apr-28 03:28N 46°10' W 123°03'1493.6
2016-Apr-28 03:19N 46°12' W 123°23'1418.3
2016-Apr-28 02:33N 46°10' W 123°03'335217.9
2016-Apr-28 02:33N 46°11' W 123°51'20150.7
2016-Apr-28 02:25N 46°12' W 123°23'1492.5
2016-Apr-28 02:16N 46°10' W 123°03'3346.4
2016-Apr-28 01:33N 46°11' W 123°51'20633.9
2016-Apr-28 01:31N 46°12' W 123°23'1416748.9
2016-Apr-28 01:31N 46°10' W 123°03'0 0.0
2016-Apr-28 01:12N 46°10' W 123°03'3350.7
2016-Apr-28 00:33N 46°11' W 123°51'20651.5
2016-Apr-28 00:31N 46°12' W 123°23'141046.7
2016-Apr-28 00:30N 46°10' W 123°03'0 0.2
2016-Apr-28 00:28N 46°10' W 123°03'3336.3
2016-Apr-27 23:33N 46°11' W 123°51'20657.6
2016-Apr-27 23:31N 46°12' W 123°23'141025.4
2016-Apr-27 23:30N 46°10' W 123°03'0 0.2
2016-Apr-27 23:28N 46°10' W 123°03'3336.2
2016-Apr-27 22:33N 46°11' W 123°51'20657.6
2016-Apr-27 22:31N 46°12' W 123°23'141092.2
2016-Apr-27 22:30N 46°10' W 123°03'0 0.0
2016-Apr-27 22:22N 46°10' W 123°03'0 0.0
2016-Apr-27 21:33N 46°10' W 123°03'335217.9
2016-Apr-27 21:33N 46°11' W 123°51'20639.7
2016-Apr-27 21:31N 46°12' W 123°23'14276.1
2016-Apr-27 21:28N 46°10' W 123°03'3336.3
2016-Apr-27 20:33N 46°11' W 123°51'20651.5
2016-Apr-27 20:31N 46°12' W 123°23'1410050.0
2016-Apr-27 20:31N 46°10' W 123°03'0 0.1
2016-Apr-27 20:24N 46°10' W 123°03'0 0.0
2016-Apr-27 19:33N 46°10' W 123°03'335000.5
2016-Apr-27 19:33N 46°11' W 123°51'20622.7
2016-Apr-27 19:31N 46°12' W 123°23'14282.3
2016-Apr-27 19:28N 46°10' W 123°03'0 0.0
2016-Apr-27 18:33N 46°10' W 123°03'334444.9
2016-Apr-27 18:33N 46°11' W 123°51'33409.6
2016-Apr-27 18:28N 46°10' W 123°03'14282.3
2016-Apr-27 18:25N 46°12' W 123°23'2022.5
2016-Apr-27 17:33N 46°11' W 123°51'33774.3
2016-Apr-27 17:30N 46°10' W 123°03'14160.0
2016-Apr-27 17:25N 46°12' W 123°23'14273.1
2016-Apr-27 17:22N 46°10' W 123°03'3340.8
2016-Apr-27 16:33N 46°11' W 123°51'20617.2
2016-Apr-27 16:31N 46°12' W 123°23'14279.1
2016-Apr-27 16:28N 46°10' W 123°03'0 0.1
2016-Apr-27 16:24N 46°10' W 123°03'3338.9
2016-Apr-27 15:33N 46°11' W 123°51'20606.6
2016-Apr-27 15:31N 46°12' W 123°23'14280.7
2016-Apr-27 15:28N 46°10' W 123°03'0 0.0
2016-Apr-27 15:18N 46°10' W 123°03'3344.1
2016-Apr-27 14:33N 46°11' W 123°51'20611.9
2016-Apr-27 14:31N 46°12' W 123°23'141196.3
2016-Apr-27 14:30N 46°10' W 123°03'0 0.2
2016-Apr-27 14:28N 46°10' W 123°03'3336.3
2016-Apr-27 13:33N 46°11' W 123°51'20611.9
2016-Apr-27 13:31N 46°12' W 123°23'1450246.6
2016-Apr-27 13:31N 46°10' W 123°03'0 0.0
2016-Apr-27 13:18N 46°10' W 123°03'0 0.0
2016-Apr-27 12:33N 46°10' W 123°03'334800.4
2016-Apr-27 12:33N 46°11' W 123°51'20241.0
2016-Apr-27 12:28N 46°12' W 123°23'14276.1
2016-Apr-27 12:25N 46°10' W 123°03'3338.4
2016-Apr-27 11:33N 46°11' W 123°51'20611.9
2016-Apr-27 11:31N 46°12' W 123°23'141225.4
2016-Apr-27 11:30N 46°10' W 123°03'0 0.2
2016-Apr-27 11:28N 46°10' W 123°03'0 0.0
2016-Apr-27 10:33N 46°10' W 123°03'335217.9
2016-Apr-27 10:33N 46°11' W 123°51'331034.6
2016-Apr-27 10:31N 46°10' W 123°03'1450246.6
2016-Apr-27 10:31N 46°12' W 123°23'2020.2
2016-Apr-27 09:33N 46°11' W 123°51'20591.3
2016-Apr-27 09:31N 46°12' W 123°23'141322.2
2016-Apr-27 09:30N 46°10' W 123°03'0 0.2
2016-Apr-27 09:28N 46°10' W 123°03'3336.3
2016-Apr-27 08:33N 46°11' W 123°51'20606.6
2016-Apr-27 08:31N 46°12' W 123°23'14138.4
2016-Apr-27 08:25N 46°10' W 123°03'0 0.6
2016-Apr-27 08:24N 46°10' W 123°03'3338.9
2016-Apr-27 07:33N 46°11' W 123°51'20606.6
2016-Apr-27 07:31N 46°12' W 123°23'1410050.0
2016-Apr-27 07:31N 46°10' W 123°03'0 0.6
2016-Apr-27 07:30N 46°10' W 123°03'0 0.0
2016-Apr-27 06:33N 46°10' W 123°03'335217.9
2016-Apr-27 06:33N 46°11' W 123°51'33398.7
2016-Apr-27 06:28N 46°10' W 123°03'14288.8
2016-Apr-27 06:25N 46°12' W 123°23'2022.5
2016-Apr-27 05:33N 46°11' W 123°51'33764.4
2016-Apr-27 05:31N 46°10' W 123°03'0 0.3
2016-Apr-27 05:28N 46°10' W 123°03'14277.6
2016-Apr-27 05:25N 46°12' W 123°23'2022.6
2016-Apr-27 04:33N 46°11' W 123°51'20586.4
2016-Apr-27 04:31N 46°12' W 123°23'141256.1
2016-Apr-27 04:30N 46°10' W 123°03'0 0.2
2016-Apr-27 04:28N 46°10' W 123°03'3336.4
2016-Apr-27 03:33N 46°11' W 123°51'20146.9
2016-Apr-27 03:25N 46°12' W 123°23'1412562.5
2016-Apr-27 03:25N 46°10' W 123°03'0 1.2
2016-Apr-27 03:24N 46°10' W 123°03'3338.9
2016-Apr-27 02:33N 46°11' W 123°51'20601.4
2016-Apr-27 02:31N 46°12' W 123°23'14273.1
2016-Apr-27 02:28N 46°10' W 123°03'0 0.0
2016-Apr-27 02:10N 46°10' W 123°03'3355.0
2016-Apr-27 01:33N 46°11' W 123°51'33764.4
2016-Apr-27 01:31N 46°10' W 123°03'14155.1
2016-Apr-27 01:25N 46°12' W 123°23'14273.1
2016-Apr-27 01:22N 46°10' W 123°03'3340.8
2016-Apr-27 00:33N 46°11' W 123°51'20591.3
2016-Apr-27 00:31N 46°12' W 123°23'1493.2
2016-Apr-27 00:22N 46°10' W 123°03'3340.8
2016-Apr-26 23:33N 46°11' W 123°51'33967.8
2016-Apr-26 23:31N 46°10' W 123°03'1450246.6
2016-Apr-26 23:31N 46°12' W 123°23'14237.0
2016-Apr-26 23:28N 46°10' W 123°03'3336.8
2016-Apr-26 22:33N 46°11' W 123°51'20576.8
2016-Apr-26 22:31N 46°12' W 123°23'141477.7
2016-Apr-26 22:31N 46°10' W 123°03'0 0.1
2016-Apr-26 22:28N 46°10' W 123°03'3336.4
2016-Apr-26 21:33N 46°11' W 123°51'33384.7
2016-Apr-26 21:28N 46°10' W 123°03'0 1.0
2016-Apr-26 21:28N 46°10' W 123°03'14346.5
2016-Apr-26 21:25N 46°12' W 123°23'2022.6
2016-Apr-26 20:33N 46°11' W 123°51'20545.5
2016-Apr-26 20:31N 46°12' W 123°23'144567.9
2016-Apr-26 20:31N 46°10' W 123°03'0 1.3
2016-Apr-26 20:31N 46°10' W 123°03'3334.8
2016-Apr-26 19:33N 46°11' W 123°51'20581.5
2016-Apr-26 19:31N 46°12' W 123°23'14255.1
2016-Apr-26 19:28N 46°10' W 123°03'0 0.1
2016-Apr-26 19:22N 46°10' W 123°03'3341.4
2016-Apr-26 18:33N 46°11' W 123°51'33750.1
2016-Apr-26 18:31N 46°10' W 123°03'0 0.1
2016-Apr-26 18:28N 46°10' W 123°03'1456.8
2016-Apr-26 18:13N 46°12' W 123°23'2029.4
2016-Apr-26 17:33N 46°11' W 123°51'20558.5
2016-Apr-26 17:31N 46°12' W 123°23'1468.3
2016-Apr-26 17:19N 46°10' W 123°03'3343.8
2016-Apr-26 16:33N 46°11' W 123°51'20549.7
2016-Apr-26 16:31N 46°12' W 123°23'141794.4
2016-Apr-26 16:31N 46°10' W 123°03'0 0.3
2016-Apr-26 16:28N 46°10' W 123°03'3336.6
2016-Apr-26 15:33N 46°11' W 123°51'33232.6
2016-Apr-26 15:25N 46°10' W 123°03'14151.8
2016-Apr-26 15:19N 46°12' W 123°23'2025.5
2016-Apr-26 14:33N 46°11' W 123°51'20601.4
2016-Apr-26 14:31N 46°12' W 123°23'141395.6
2016-Apr-26 14:31N 46°10' W 123°03'0 0.1
2016-Apr-26 14:28N 46°10' W 123°03'3336.6
2016-Apr-26 13:33N 46°11' W 123°51'20240.1
2016-Apr-26 13:28N 46°12' W 123°23'141794.5
2016-Apr-26 13:28N 46°10' W 123°03'0 0.1
2016-Apr-26 13:25N 46°10' W 123°03'3338.9
2016-Apr-26 12:33N 46°11' W 123°51'33794.8
2016-Apr-26 12:31N 46°10' W 123°03'14151.8
2016-Apr-26 12:25N 46°12' W 123°23'142791.5
2016-Apr-26 12:25N 46°10' W 123°03'3338.8
2016-Apr-26 11:33N 46°11' W 123°51'33833.4
2016-Apr-26 11:31N 46°10' W 123°03'14310.2
2016-Apr-26 11:28N 46°12' W 123°23'1469.8
2016-Apr-26 11:16N 46°10' W 123°03'3346.6
2016-Apr-26 10:33N 46°11' W 123°51'20229.9
2016-Apr-26 10:28N 46°12' W 123°23'1450243.2
2016-Apr-26 10:28N 46°10' W 123°03'0 0.0
2016-Apr-26 10:16N 46°10' W 123°03'3347.0
2016-Apr-26 09:33N 46°11' W 123°51'33390.9
2016-Apr-26 09:28N 46°10' W 123°03'0 1.4
2016-Apr-26 09:28N 46°10' W 123°03'14299.1
2016-Apr-26 09:25N 46°12' W 123°23'2022.6
2016-Apr-26 08:33N 46°11' W 123°51'20541.3
2016-Apr-26 08:31N 46°12' W 123°23'1490.4
2016-Apr-26 08:22N 46°10' W 123°03'0 0.0
2016-Apr-26 08:10N 46°10' W 123°03'3354.3
2016-Apr-26 07:33N 46°11' W 123°51'20562.9
2016-Apr-26 07:31N 46°12' W 123°23'1450243.2
2016-Apr-26 07:31N 46°10' W 123°03'0 0.1
2016-Apr-26 07:28N 46°10' W 123°03'3336.6
2016-Apr-26 06:33N 46°11' W 123°51'20143.6
2016-Apr-26 06:25N 46°12' W 123°23'14255.1
2016-Apr-26 06:22N 46°10' W 123°03'0 0.1
2016-Apr-26 06:16N 46°10' W 123°03'3346.6
2016-Apr-26 05:33N 46°11' W 123°51'33359.3
2016-Apr-26 05:28N 46°10' W 123°03'0 0.1
2016-Apr-26 05:22N 46°10' W 123°03'3338.9
2016-Apr-26 04:30N 46°11' W 123°51'33805.5
2016-Apr-26 04:28N 46°10' W 123°03'0 2.7
2016-Apr-26 04:28N 46°10' W 123°03'1497.2
2016-Apr-26 04:19N 46°12' W 123°23'2025.6
2016-Apr-26 03:33N 46°11' W 123°51'20529.1
2016-Apr-26 03:31N 46°12' W 123°23'14257.7
2016-Apr-26 03:28N 46°10' W 123°03'0 0.1
2016-Apr-26 03:19N 46°10' W 123°03'3344.1
2016-Apr-26 02:33N 46°11' W 123°51'20521.2
2016-Apr-26 02:31N 46°12' W 123°23'143589.0
2016-Apr-26 02:31N 46°10' W 123°03'0 2.4
2016-Apr-26 02:31N 46°10' W 123°03'3334.9
2016-Apr-26 01:33N 46°11' W 123°51'33759.6
2016-Apr-26 01:31N 46°10' W 123°03'0 0.3
2016-Apr-26 01:28N 46°10' W 123°03'3336.7
2016-Apr-26 00:33N 46°11' W 123°51'33784.4
2016-Apr-26 00:31N 46°10' W 123°03'0 0.1
2016-Apr-26 00:28N 46°10' W 123°03'0 0.0
2016-Apr-25 23:31N 46°10' W 123°03'010.8
2016-Apr-25 23:31N 46°10' W 123°03'334615.8
2016-Apr-25 23:30N 46°11' W 123°51'2050.4
2016-Apr-25 23:07N 46°12' W 123°23'2034.7
2016-Apr-25 22:33N 46°11' W 123°51'20513.6
2016-Apr-25 22:31N 46°12' W 123°23'142512.2
2016-Apr-25 22:31N 46°10' W 123°03'0 0.1
2016-Apr-25 22:25N 46°10' W 123°03'3338.8
2016-Apr-25 21:33N 46°11' W 123°51'20529.1
2016-Apr-25 21:31N 46°12' W 123°23'142512.2
2016-Apr-25 21:31N 46°10' W 123°03'0 5.4
2016-Apr-25 21:31N 46°10' W 123°03'0 0.0
2016-Apr-25 20:31N 46°10' W 123°03'335714.8
2016-Apr-25 20:30N 46°11' W 123°51'20222.0
2016-Apr-25 20:25N 46°12' W 123°23'14129.5
2016-Apr-25 20:19N 46°10' W 123°03'3344.2
2016-Apr-25 19:33N 46°11' W 123°51'20521.2
2016-Apr-25 19:31N 46°12' W 123°23'142512.2
2016-Apr-25 19:31N 46°10' W 123°03'0 0.1
2016-Apr-25 19:25N 46°10' W 123°03'3339.1
2016-Apr-25 18:33N 46°11' W 123°51'20499.0
2016-Apr-25 18:31N 46°12' W 123°23'143349.5
2016-Apr-25 18:31N 46°10' W 123°03'0 0.0
2016-Apr-25 18:16N 46°10' W 123°03'3347.3
2016-Apr-25 17:33N 46°11' W 123°51'33731.8
2016-Apr-25 17:31N 46°10' W 123°03'14151.4
2016-Apr-25 17:25N 46°12' W 123°23'142955.5
2016-Apr-25 17:25N 46°10' W 123°03'3338.9
2016-Apr-25 16:33N 46°11' W 123°51'33779.3
2016-Apr-25 16:31N 46°10' W 123°03'0 3.9
2016-Apr-25 16:31N 46°10' W 123°03'14151.8
2016-Apr-25 16:25N 46°12' W 123°23'2021.3
2016-Apr-25 15:30N 46°11' W 123°51'20341.6
2016-Apr-25 15:27N 46°12' W 123°23'1489.9
2016-Apr-25 15:17N 46°10' W 123°03'0 0.2
2016-Apr-25 15:13N 46°10' W 123°03'3350.2
2016-Apr-25 14:33N 46°11' W 123°51'33706.0
2016-Apr-25 14:31N 46°10' W 123°03'0 0.0
2016-Apr-25 14:19N 46°10' W 123°03'3344.1
2016-Apr-25 13:33N 46°11' W 123°51'33710.1
2016-Apr-25 13:31N 46°10' W 123°03'0 0.1
2016-Apr-25 13:25N 46°10' W 123°03'14144.4
2016-Apr-25 13:19N 46°12' W 123°23'2025.7
2016-Apr-25 12:33N 46°11' W 123°51'20509.9
2016-Apr-25 12:31N 46°12' W 123°23'142955.5
2016-Apr-25 12:31N 46°10' W 123°03'0 3.1
2016-Apr-25 12:31N 46°10' W 123°03'3335.0
2016-Apr-25 11:33N 46°11' W 123°51'33723.0
2016-Apr-25 11:31N 46°10' W 123°03'1457.6
2016-Apr-25 11:16N 46°12' W 123°23'142955.5
2016-Apr-25 11:16N 46°10' W 123°03'3347.2
2016-Apr-25 10:33N 46°11' W 123°51'33706.0
2016-Apr-25 10:31N 46°10' W 123°03'14344.2
2016-Apr-25 10:28N 46°12' W 123°23'14252.5
2016-Apr-25 10:25N 46°10' W 123°03'3338.9
2016-Apr-25 09:33N 46°11' W 123°51'20502.6
2016-Apr-25 09:31N 46°12' W 123°23'14257.7
2016-Apr-25 09:28N 46°10' W 123°03'0 0.1
2016-Apr-25 09:25N 46°10' W 123°03'3339.1
2016-Apr-25 08:33N 46°11' W 123°51'33706.0
2016-Apr-25 08:31N 46°10' W 123°03'14337.2
2016-Apr-25 08:28N 46°12' W 123°23'1490.4
2016-Apr-25 08:19N 46°10' W 123°03'3344.0
2016-Apr-25 07:33N 46°11' W 123°51'  

Dump ship's entire track history